<?xml version="1.0" encoding="UTF-8" standalone="no" ?>
<gpx xmlns="http://www.topografix.com/GPX/1/1" xmlns:xsi="http://www.w3.org/2001/XMLSchema-instance" xsi:schemaLocation="http://www.topografix.com/GPX/1/1 http://www.topografix.com/GPX/1/1/gpx.xsd" version="1.1" creator="VisuGPX - https://www.visugpx.com">
  <metadata>
    <name>Les fabuleuses Terres Noires Longue Hyper engagé</name>
  </metadata>
  <wpt lat="44.10546" lon="6.32954">
    <ele>1228.3</ele>
    <name><![CDATA[Shunt Remi ]]></name>
    <type><![CDATA[star]]></type>
  </wpt>
  <wpt lat="44.10546" lon="6.32954">
    <ele>1228.3</ele>
    <name><![CDATA[Shunt Remi ]]></name>
    <type><![CDATA[star]]></type>
  </wpt>
  <trk>
    <name><![CDATA[Les fabuleuses Terres Noires Longue Hyper engagé]]></name>
    <extensions>
      <line xmlns="http://www.topografix.com/GPX/gpx_style/0/2">
        <color>0000FF</color>
        <width>4</width>
      </line>
    </extensions>
    <trkseg>
      <trkpt lat="44.09995" lon="6.25008">
        <ele>619.6</ele>
        <time>2022-05-20T16:12:50Z</time>
        <extensions>
          <visugpx:TrkExtension xmlns:visugpx="https://www.visugpx.com/editgpx/">
            <visugpx:node>3</visugpx:node>
            </visugpx:TrkExtension>
        </extensions>
      </trkpt>
      <trkpt lat="44.10007" lon="6.24972">
        <ele>621.5</ele>
        <time>2022-05-20T16:13:04.735Z</time>
      </trkpt>
      <trkpt lat="44.10007" lon="6.24945">
        <ele>620.8</ele>
        <time>2022-05-20T16:13:07.246Z</time>
      </trkpt>
      <trkpt lat="44.09992" lon="6.24897">
        <ele>621.5</ele>
        <time>2022-05-20T16:13:19.262Z</time>
      </trkpt>
      <trkpt lat="44.0999" lon="6.24877">
        <ele>624.1</ele>
        <time>2022-05-20T16:13:34.164Z</time>
      </trkpt>
      <trkpt lat="44.09951" lon="6.2479">
        <ele>626.7</ele>
        <time>2022-05-20T16:14:03.152Z</time>
      </trkpt>
      <trkpt lat="44.09889" lon="6.24701">
        <ele>626.6</ele>
        <time>2022-05-20T16:14:26.192Z</time>
      </trkpt>
      <trkpt lat="44.09832" lon="6.24599">
        <ele>614.7</ele>
        <time>2022-05-20T16:14:36.384Z</time>
      </trkpt>
      <trkpt lat="44.09702" lon="6.24257">
        <ele>608.7</ele>
        <time>2022-05-20T16:15:18.629Z</time>
      </trkpt>
      <trkpt lat="44.09664" lon="6.24225">
        <ele>606.8</ele>
        <time>2022-05-20T16:15:24.035Z</time>
      </trkpt>
      <trkpt lat="44.09559" lon="6.2415">
        <ele>606.8</ele>
        <time>2022-05-20T16:15:55.188Z</time>
      </trkpt>
      <trkpt lat="44.09551" lon="6.24111">
        <ele>602.8</ele>
        <time>2022-05-20T16:15:58.351Z</time>
      </trkpt>
      <trkpt lat="44.09547" lon="6.24037">
        <ele>602</ele>
        <time>2022-05-20T16:16:07.210Z</time>
      </trkpt>
      <trkpt lat="44.09527" lon="6.23992">
        <ele>602</ele>
        <time>2022-05-20T16:16:17.187Z</time>
      </trkpt>
      <trkpt lat="44.09458" lon="6.23892">
        <ele>601</ele>
        <time>2022-05-20T16:16:34.723Z</time>
      </trkpt>
      <trkpt lat="44.09429" lon="6.23836">
        <ele>601</ele>
        <time>2022-05-20T16:16:47.772Z</time>
      </trkpt>
      <trkpt lat="44.09382" lon="6.23671">
        <ele>598</ele>
        <time>2022-05-20T16:17:06.719Z</time>
      </trkpt>
      <trkpt lat="44.09369" lon="6.23652">
        <ele>597.6</ele>
        <time>2022-05-20T16:17:09.551Z</time>
      </trkpt>
      <trkpt lat="44.0937" lon="6.23695">
        <ele>598</ele>
        <time>2022-05-20T16:17:18.887Z</time>
      </trkpt>
      <trkpt lat="44.09335" lon="6.23737">
        <ele>600</ele>
        <time>2022-05-20T16:17:39.177Z</time>
      </trkpt>
      <trkpt lat="44.0932" lon="6.2377">
        <ele>605.6</ele>
        <time>2022-05-20T16:18:07.973Z</time>
      </trkpt>
      <trkpt lat="44.09332" lon="6.23839">
        <ele>613.4</ele>
        <time>2022-05-20T16:19:00.020Z</time>
      </trkpt>
      <trkpt lat="44.09345" lon="6.23874">
        <ele>618.5</ele>
        <time>2022-05-20T16:19:28.466Z</time>
      </trkpt>
      <trkpt lat="44.09333" lon="6.23847">
        <ele>615</ele>
        <time>2022-05-20T16:19:30.878Z</time>
      </trkpt>
      <trkpt lat="44.09297" lon="6.23804">
        <ele>612.5</ele>
        <time>2022-05-20T16:19:36.266Z</time>
      </trkpt>
      <trkpt lat="44.09263" lon="6.23784">
        <ele>612.3</ele>
        <time>2022-05-20T16:19:45.195Z</time>
      </trkpt>
      <trkpt lat="44.09245" lon="6.23814">
        <ele>613.2</ele>
        <time>2022-05-20T16:19:55.712Z</time>
      </trkpt>
      <trkpt lat="44.09236" lon="6.23847">
        <ele>614.9</ele>
        <time>2022-05-20T16:20:08.889Z</time>
      </trkpt>
      <trkpt lat="44.09234" lon="6.23888">
        <ele>618.6</ele>
        <time>2022-05-20T16:20:35.884Z</time>
      </trkpt>
      <trkpt lat="44.09211" lon="6.23968">
        <ele>613.4</ele>
        <time>2022-05-20T16:20:42.610Z</time>
      </trkpt>
      <trkpt lat="44.09205" lon="6.23999">
        <ele>612.2</ele>
        <time>2022-05-20T16:20:45.259Z</time>
      </trkpt>
      <trkpt lat="44.09186" lon="6.24068">
        <ele>606.4</ele>
        <time>2022-05-20T16:20:51.057Z</time>
      </trkpt>
      <trkpt lat="44.09156" lon="6.24128">
        <ele>602.8</ele>
        <time>2022-05-20T16:20:56.738Z</time>
      </trkpt>
      <trkpt lat="44.09142" lon="6.24188">
        <ele>605</ele>
        <time>2022-05-20T16:21:17.562Z</time>
      </trkpt>
      <trkpt lat="44.09117" lon="6.24324">
        <ele>608.5</ele>
        <time>2022-05-20T16:21:56.824Z</time>
      </trkpt>
      <trkpt lat="44.09118" lon="6.2439">
        <ele>611.5</ele>
        <time>2022-05-20T16:22:20.899Z</time>
      </trkpt>
      <trkpt lat="44.0913" lon="6.24439">
        <ele>612.8</ele>
        <time>2022-05-20T16:22:35.345Z</time>
      </trkpt>
      <trkpt lat="44.09147" lon="6.24547">
        <ele>616.8</ele>
        <time>2022-05-20T16:23:12.307Z</time>
      </trkpt>
      <trkpt lat="44.09148" lon="6.24622">
        <ele>620.3</ele>
        <time>2022-05-20T16:23:40.025Z</time>
      </trkpt>
      <trkpt lat="44.09124" lon="6.24749">
        <ele>617</ele>
        <time>2022-05-20T16:23:52.438Z</time>
      </trkpt>
      <trkpt lat="44.09087" lon="6.24834">
        <ele>620</ele>
        <time>2022-05-20T16:24:23.217Z</time>
      </trkpt>
      <trkpt lat="44.09041" lon="6.24904">
        <ele>620.9</ele>
        <time>2022-05-20T16:24:43.788Z</time>
      </trkpt>
      <trkpt lat="44.09009" lon="6.24971">
        <ele>621.3</ele>
        <time>2022-05-20T16:25:00.203Z</time>
      </trkpt>
      <trkpt lat="44.08983" lon="6.25043">
        <ele>623.7</ele>
        <time>2022-05-20T16:25:24.958Z</time>
      </trkpt>
      <trkpt lat="44.08946" lon="6.25212">
        <ele>627.2</ele>
        <time>2022-05-20T16:26:09.945Z</time>
      </trkpt>
      <trkpt lat="44.08937" lon="6.25303">
        <ele>627.5</ele>
        <time>2022-05-20T16:26:28.339Z</time>
      </trkpt>
      <trkpt lat="44.08933" lon="6.254">
        <ele>624</ele>
        <time>2022-05-20T16:26:36.325Z</time>
      </trkpt>
      <trkpt lat="44.08954" lon="6.25461">
        <ele>625.2</ele>
        <time>2022-05-20T16:26:52.910Z</time>
      </trkpt>
      <trkpt lat="44.08995" lon="6.25515">
        <ele>627.9</ele>
        <time>2022-05-20T16:27:18.646Z</time>
      </trkpt>
      <trkpt lat="44.09027" lon="6.2558">
        <ele>626.3</ele>
        <time>2022-05-20T16:27:26.671Z</time>
      </trkpt>
      <trkpt lat="44.09031" lon="6.25627">
        <ele>624.2</ele>
        <time>2022-05-20T16:27:30.254Z</time>
      </trkpt>
      <trkpt lat="44.09044" lon="6.25689">
        <ele>626.7</ele>
        <time>2022-05-20T16:27:52.326Z</time>
      </trkpt>
      <trkpt lat="44.09066" lon="6.25743">
        <ele>629.3</ele>
        <time>2022-05-20T16:28:14.174Z</time>
      </trkpt>
      <trkpt lat="44.09066" lon="6.25784">
        <ele>628.7</ele>
        <time>2022-05-20T16:28:18.683Z</time>
      </trkpt>
      <trkpt lat="44.09061" lon="6.2585">
        <ele>632.1</ele>
        <time>2022-05-20T16:28:44.518Z</time>
      </trkpt>
      <trkpt lat="44.09025" lon="6.25925">
        <ele>630.8</ele>
        <time>2022-05-20T16:28:54.513Z</time>
      </trkpt>
      <trkpt lat="44.08997" lon="6.25967">
        <ele>628.5</ele>
        <time>2022-05-20T16:28:58.986Z</time>
      </trkpt>
      <trkpt lat="44.08955" lon="6.26131">
        <ele>626.3</ele>
        <time>2022-05-20T16:29:18.871Z</time>
      </trkpt>
      <trkpt lat="44.08901" lon="6.262">
        <ele>628.1</ele>
        <time>2022-05-20T16:29:44.157Z</time>
      </trkpt>
      <trkpt lat="44.0887" lon="6.26271">
        <ele>629</ele>
        <time>2022-05-20T16:30:02.449Z</time>
      </trkpt>
      <trkpt lat="44.08849" lon="6.26366">
        <ele>630.6</ele>
        <time>2022-05-20T16:30:26.178Z</time>
      </trkpt>
      <trkpt lat="44.08858" lon="6.26446">
        <ele>631.1</ele>
        <time>2022-05-20T16:30:42.948Z</time>
      </trkpt>
      <trkpt lat="44.08915" lon="6.26634">
        <ele>633.9</ele>
        <time>2022-05-20T16:31:30.165Z</time>
      </trkpt>
      <trkpt lat="44.08945" lon="6.2672">
        <ele>636.2</ele>
        <time>2022-05-20T16:31:56.435Z</time>
      </trkpt>
      <trkpt lat="44.08985" lon="6.26808">
        <ele>639.6</ele>
        <time>2022-05-20T16:32:30.092Z</time>
      </trkpt>
      <trkpt lat="44.09023" lon="6.26873">
        <ele>640.6</ele>
        <time>2022-05-20T16:32:48.947Z</time>
      </trkpt>
      <trkpt lat="44.09041" lon="6.26945">
        <ele>638</ele>
        <time>2022-05-20T16:32:55.325Z</time>
      </trkpt>
      <trkpt lat="44.09047" lon="6.27125">
        <ele>640.3</ele>
        <time>2022-05-20T16:33:36.422Z</time>
      </trkpt>
      <trkpt lat="44.09033" lon="6.27186">
        <ele>640.9</ele>
        <time>2022-05-20T16:33:50.412Z</time>
      </trkpt>
      <trkpt lat="44.08976" lon="6.27349">
        <ele>642.8</ele>
        <time>2022-05-20T16:34:30.128Z</time>
      </trkpt>
      <trkpt lat="44.08921" lon="6.27558">
        <ele>646.6</ele>
        <time>2022-05-20T16:35:24.475Z</time>
      </trkpt>
      <trkpt lat="44.08905" lon="6.27638">
        <ele>647.7</ele>
        <time>2022-05-20T16:35:43.369Z</time>
      </trkpt>
      <trkpt lat="44.08899" lon="6.27715">
        <ele>648.9</ele>
        <time>2022-05-20T16:36:01.851Z</time>
      </trkpt>
      <trkpt lat="44.08919" lon="6.27786">
        <ele>649.7</ele>
        <time>2022-05-20T16:36:18.705Z</time>
      </trkpt>
      <trkpt lat="44.08945" lon="6.27862">
        <ele>653</ele>
        <time>2022-05-20T16:36:47.543Z</time>
      </trkpt>
      <trkpt lat="44.08957" lon="6.27944">
        <ele>658.5</ele>
        <time>2022-05-20T16:37:25.819Z</time>
      </trkpt>
      <trkpt lat="44.08956" lon="6.2801">
        <ele>659.7</ele>
        <time>2022-05-20T16:37:42.286Z</time>
      </trkpt>
      <trkpt lat="44.0892" lon="6.28059">
        <ele>655.1</ele>
        <time>2022-05-20T16:37:47.715Z</time>
      </trkpt>
      <trkpt lat="44.08893" lon="6.2812">
        <ele>657.4</ele>
        <time>2022-05-20T16:38:10.914Z</time>
      </trkpt>
      <trkpt lat="44.08908" lon="6.28181">
        <ele>662.7</ele>
        <time>2022-05-20T16:38:48.174Z</time>
      </trkpt>
      <trkpt lat="44.08947" lon="6.2826">
        <ele>668.5</ele>
        <time>2022-05-20T16:39:29.350Z</time>
      </trkpt>
      <trkpt lat="44.08936" lon="6.28305">
        <ele>664.7</ele>
        <time>2022-05-20T16:39:33.121Z</time>
      </trkpt>
      <trkpt lat="44.08898" lon="6.28338">
        <ele>669.5</ele>
        <time>2022-05-20T16:40:06.439Z</time>
      </trkpt>
      <trkpt lat="44.08863" lon="6.28359">
        <ele>671.9</ele>
        <time>2022-05-20T16:40:25.825Z</time>
      </trkpt>
      <trkpt lat="44.08846" lon="6.2841">
        <ele>675.8</ele>
        <time>2022-05-20T16:40:52.800Z</time>
      </trkpt>
      <trkpt lat="44.0885" lon="6.28446">
        <ele>675.7</ele>
        <time>2022-05-20T16:40:59.246Z</time>
      </trkpt>
      <trkpt lat="44.08858" lon="6.28476">
        <ele>676.5</ele>
      </trkpt>
      <trkpt lat="44.08857" lon="6.28501">
        <ele>677.2</ele>
      </trkpt>
      <trkpt lat="44.08839" lon="6.2856">
        <ele>677.6</ele>
      </trkpt>
      <trkpt lat="44.08828" lon="6.28579">
        <ele>676.1</ele>
      </trkpt>
      <trkpt lat="44.08819" lon="6.28585">
        <ele>675</ele>
      </trkpt>
      <trkpt lat="44.08811" lon="6.28588">
        <ele>673.8</ele>
      </trkpt>
      <trkpt lat="44.08788" lon="6.28594">
        <ele>675.9</ele>
      </trkpt>
      <trkpt lat="44.08776" lon="6.28596">
        <ele>678.1</ele>
      </trkpt>
      <trkpt lat="44.08765" lon="6.28601">
        <ele>681.8</ele>
      </trkpt>
      <trkpt lat="44.08754" lon="6.28609">
        <ele>685.6</ele>
      </trkpt>
      <trkpt lat="44.08751" lon="6.28615">
        <ele>686.1</ele>
      </trkpt>
      <trkpt lat="44.0875" lon="6.28625">
        <ele>685</ele>
      </trkpt>
      <trkpt lat="44.08751" lon="6.28637">
        <ele>683</ele>
      </trkpt>
      <trkpt lat="44.0875" lon="6.28647">
        <ele>682.1</ele>
      </trkpt>
      <trkpt lat="44.08744" lon="6.28657">
        <ele>683.3</ele>
      </trkpt>
      <trkpt lat="44.08729" lon="6.2867">
        <ele>685.6</ele>
      </trkpt>
      <trkpt lat="44.08704" lon="6.28677">
        <ele>690.7</ele>
      </trkpt>
      <trkpt lat="44.08695" lon="6.287">
        <ele>689.1</ele>
      </trkpt>
      <trkpt lat="44.08675" lon="6.28722">
        <ele>691.6</ele>
      </trkpt>
      <trkpt lat="44.08662" lon="6.28732">
        <ele>691.7</ele>
      </trkpt>
      <trkpt lat="44.08651" lon="6.28734">
        <ele>693.2</ele>
      </trkpt>
      <trkpt lat="44.0864" lon="6.28734">
        <ele>695.2</ele>
      </trkpt>
      <trkpt lat="44.08627" lon="6.28721">
        <ele>699.9</ele>
      </trkpt>
      <trkpt lat="44.0862" lon="6.28721">
        <ele>700.9</ele>
      </trkpt>
      <trkpt lat="44.08616" lon="6.28725">
        <ele>701</ele>
      </trkpt>
      <trkpt lat="44.08615" lon="6.28735">
        <ele>700.3</ele>
      </trkpt>
      <trkpt lat="44.08605" lon="6.28756">
        <ele>701.2</ele>
      </trkpt>
      <trkpt lat="44.086" lon="6.28774">
        <ele>700.5</ele>
      </trkpt>
      <trkpt lat="44.08583" lon="6.28798">
        <ele>702.5</ele>
      </trkpt>
      <trkpt lat="44.08571" lon="6.28811">
        <ele>705.8</ele>
      </trkpt>
      <trkpt lat="44.08548" lon="6.28865">
        <ele>707.7</ele>
      </trkpt>
      <trkpt lat="44.08532" lon="6.28883">
        <ele>712.4</ele>
      </trkpt>
      <trkpt lat="44.08523" lon="6.28907">
        <ele>710.9</ele>
      </trkpt>
      <trkpt lat="44.08499" lon="6.28932">
        <ele>715.5</ele>
      </trkpt>
      <trkpt lat="44.0848" lon="6.28941">
        <ele>721.5</ele>
      </trkpt>
      <trkpt lat="44.08473" lon="6.2895">
        <ele>721.8</ele>
      </trkpt>
      <trkpt lat="44.0847" lon="6.28961">
        <ele>719.7</ele>
      </trkpt>
      <trkpt lat="44.08464" lon="6.28973">
        <ele>718.9</ele>
      </trkpt>
      <trkpt lat="44.08447" lon="6.28997">
        <ele>721.5</ele>
      </trkpt>
      <trkpt lat="44.08439" lon="6.28999">
        <ele>723.8</ele>
      </trkpt>
      <trkpt lat="44.08432" lon="6.28996">
        <ele>726.6</ele>
      </trkpt>
      <trkpt lat="44.08408" lon="6.28996">
        <ele>733.7</ele>
      </trkpt>
      <trkpt lat="44.08388" lon="6.28991">
        <ele>741.3</ele>
      </trkpt>
      <trkpt lat="44.08382" lon="6.28996">
        <ele>745.4</ele>
      </trkpt>
      <trkpt lat="44.08381" lon="6.29005">
        <ele>745.5</ele>
      </trkpt>
      <trkpt lat="44.08384" lon="6.29033">
        <ele>741.3</ele>
      </trkpt>
      <trkpt lat="44.08384" lon="6.29045">
        <ele>740</ele>
      </trkpt>
      <trkpt lat="44.0838" lon="6.29055">
        <ele>741.2</ele>
      </trkpt>
      <trkpt lat="44.08373" lon="6.29064">
        <ele>742.2</ele>
      </trkpt>
      <trkpt lat="44.08343" lon="6.29084">
        <ele>749.6</ele>
      </trkpt>
      <trkpt lat="44.08334" lon="6.29096">
        <ele>749.1</ele>
      </trkpt>
      <trkpt lat="44.08314" lon="6.29118">
        <ele>751.6</ele>
      </trkpt>
      <trkpt lat="44.08306" lon="6.2913">
        <ele>753.4</ele>
      </trkpt>
      <trkpt lat="44.08289" lon="6.29173">
        <ele>750.7</ele>
      </trkpt>
      <trkpt lat="44.08283" lon="6.29187">
        <ele>749.4</ele>
      </trkpt>
      <trkpt lat="44.08275" lon="6.29197">
        <ele>750.1</ele>
      </trkpt>
      <trkpt lat="44.08267" lon="6.29199">
        <ele>751.4</ele>
      </trkpt>
      <trkpt lat="44.08257" lon="6.29198">
        <ele>753.8</ele>
      </trkpt>
      <trkpt lat="44.08222" lon="6.29175">
        <ele>760.2</ele>
      </trkpt>
      <trkpt lat="44.08211" lon="6.29168">
        <ele>760.9</ele>
      </trkpt>
      <trkpt lat="44.08193" lon="6.29138">
        <ele>765.5</ele>
      </trkpt>
      <trkpt lat="44.08185" lon="6.29137">
        <ele>768</ele>
      </trkpt>
      <trkpt lat="44.08166" lon="6.29155">
        <ele>768.6</ele>
      </trkpt>
      <trkpt lat="44.08154" lon="6.29163">
        <ele>771.1</ele>
      </trkpt>
      <trkpt lat="44.08141" lon="6.29186">
        <ele>769.7</ele>
      </trkpt>
      <trkpt lat="44.0809" lon="6.29248">
        <ele>776.7</ele>
      </trkpt>
      <trkpt lat="44.08067" lon="6.29272">
        <ele>779.4</ele>
      </trkpt>
      <trkpt lat="44.08051" lon="6.29294">
        <ele>781</ele>
      </trkpt>
      <trkpt lat="44.08039" lon="6.29319">
        <ele>780.8</ele>
      </trkpt>
      <trkpt lat="44.08029" lon="6.29334">
        <ele>781.4</ele>
      </trkpt>
      <trkpt lat="44.08006" lon="6.29354">
        <ele>783</ele>
      </trkpt>
      <trkpt lat="44.0799" lon="6.2936">
        <ele>784.3</ele>
      </trkpt>
      <trkpt lat="44.07977" lon="6.29362">
        <ele>785.3</ele>
      </trkpt>
      <trkpt lat="44.07969" lon="6.29363">
        <ele>785.7</ele>
      </trkpt>
      <trkpt lat="44.07959" lon="6.29362">
        <ele>786.3</ele>
      </trkpt>
      <trkpt lat="44.07954" lon="6.29357">
        <ele>788</ele>
      </trkpt>
      <trkpt lat="44.07954" lon="6.29347">
        <ele>791.2</ele>
      </trkpt>
      <trkpt lat="44.0796" lon="6.29339">
        <ele>793.1</ele>
      </trkpt>
      <trkpt lat="44.07967" lon="6.29336">
        <ele>793</ele>
      </trkpt>
      <trkpt lat="44.07974" lon="6.29331">
        <ele>793.3</ele>
      </trkpt>
      <trkpt lat="44.08002" lon="6.29303">
        <ele>796</ele>
      </trkpt>
      <trkpt lat="44.08013" lon="6.29296">
        <ele>794.8</ele>
      </trkpt>
      <trkpt lat="44.08017" lon="6.29289">
        <ele>795.3</ele>
      </trkpt>
      <trkpt lat="44.08017" lon="6.29281">
        <ele>797</ele>
      </trkpt>
      <trkpt lat="44.08013" lon="6.29278">
        <ele>798.7</ele>
      </trkpt>
      <trkpt lat="44.08005" lon="6.29279">
        <ele>800.5</ele>
      </trkpt>
      <trkpt lat="44.0799" lon="6.2929">
        <ele>800.8</ele>
      </trkpt>
      <trkpt lat="44.0796" lon="6.293">
        <ele>802.9</ele>
      </trkpt>
      <trkpt lat="44.07943" lon="6.29301">
        <ele>804.9</ele>
      </trkpt>
      <trkpt lat="44.07907" lon="6.29288">
        <ele>809.6</ele>
      </trkpt>
      <trkpt lat="44.07891" lon="6.29284">
        <ele>811.7</ele>
      </trkpt>
      <trkpt lat="44.07881" lon="6.29287">
        <ele>812.7</ele>
      </trkpt>
      <trkpt lat="44.07874" lon="6.29303">
        <ele>810.7</ele>
      </trkpt>
      <trkpt lat="44.07868" lon="6.29315">
        <ele>809</ele>
      </trkpt>
      <trkpt lat="44.07837" lon="6.29319">
        <ele>813</ele>
      </trkpt>
      <trkpt lat="44.07805" lon="6.29329">
        <ele>815.3</ele>
      </trkpt>
      <trkpt lat="44.07784" lon="6.29329">
        <ele>818.6</ele>
      </trkpt>
      <trkpt lat="44.07766" lon="6.29334">
        <ele>821.6</ele>
      </trkpt>
      <trkpt lat="44.07756" lon="6.29341">
        <ele>822.5</ele>
      </trkpt>
      <trkpt lat="44.07742" lon="6.29358">
        <ele>822.4</ele>
      </trkpt>
      <trkpt lat="44.07735" lon="6.29371">
        <ele>821.7</ele>
      </trkpt>
      <trkpt lat="44.07731" lon="6.29387">
        <ele>819.1</ele>
      </trkpt>
      <trkpt lat="44.07725" lon="6.29399">
        <ele>819</ele>
      </trkpt>
      <trkpt lat="44.07706" lon="6.29401">
        <ele>820.4</ele>
      </trkpt>
      <trkpt lat="44.07676" lon="6.29385">
        <ele>823.4</ele>
      </trkpt>
      <trkpt lat="44.07662" lon="6.29374">
        <ele>824.9</ele>
      </trkpt>
      <trkpt lat="44.07658" lon="6.29361">
        <ele>828</ele>
      </trkpt>
      <trkpt lat="44.07652" lon="6.29353">
        <ele>829.6</ele>
      </trkpt>
      <trkpt lat="44.07645" lon="6.2935">
        <ele>830.1</ele>
      </trkpt>
      <trkpt lat="44.07639" lon="6.29354">
        <ele>829.3</ele>
      </trkpt>
      <trkpt lat="44.07631" lon="6.29378">
        <ele>827.7</ele>
      </trkpt>
      <trkpt lat="44.07625" lon="6.29383">
        <ele>828.8</ele>
      </trkpt>
      <trkpt lat="44.07619" lon="6.29383">
        <ele>830.8</ele>
      </trkpt>
      <trkpt lat="44.07596" lon="6.29407">
        <ele>830.3</ele>
      </trkpt>
      <trkpt lat="44.07565" lon="6.29431">
        <ele>828.2</ele>
      </trkpt>
      <trkpt lat="44.07552" lon="6.29437">
        <ele>828.5</ele>
      </trkpt>
      <trkpt lat="44.07543" lon="6.29437">
        <ele>829.3</ele>
      </trkpt>
      <trkpt lat="44.07525" lon="6.29429">
        <ele>832.4</ele>
      </trkpt>
      <trkpt lat="44.07518" lon="6.2943">
        <ele>832.5</ele>
      </trkpt>
      <trkpt lat="44.07505" lon="6.29437">
        <ele>831.4</ele>
      </trkpt>
      <trkpt lat="44.07494" lon="6.29434">
        <ele>833.1</ele>
      </trkpt>
      <trkpt lat="44.07486" lon="6.29428">
        <ele>835.2</ele>
      </trkpt>
      <trkpt lat="44.07479" lon="6.29426">
        <ele>836.3</ele>
      </trkpt>
      <trkpt lat="44.07472" lon="6.29429">
        <ele>836.8</ele>
      </trkpt>
      <trkpt lat="44.0747" lon="6.29439">
        <ele>836.4</ele>
      </trkpt>
      <trkpt lat="44.07467" lon="6.29457">
        <ele>833.9</ele>
      </trkpt>
      <trkpt lat="44.07461" lon="6.29467">
        <ele>833.2</ele>
      </trkpt>
      <trkpt lat="44.07453" lon="6.29475">
        <ele>832.9</ele>
      </trkpt>
      <trkpt lat="44.07442" lon="6.29479">
        <ele>834</ele>
      </trkpt>
      <trkpt lat="44.07426" lon="6.2948">
        <ele>836.7</ele>
      </trkpt>
      <trkpt lat="44.07416" lon="6.29485">
        <ele>836.9</ele>
      </trkpt>
      <trkpt lat="44.07406" lon="6.29492">
        <ele>836</ele>
      </trkpt>
      <trkpt lat="44.07396" lon="6.29498">
        <ele>835.6</ele>
      </trkpt>
      <trkpt lat="44.07387" lon="6.29495">
        <ele>837.1</ele>
      </trkpt>
      <trkpt lat="44.07371" lon="6.29475">
        <ele>840.6</ele>
      </trkpt>
      <trkpt lat="44.07361" lon="6.29469">
        <ele>841.2</ele>
      </trkpt>
      <trkpt lat="44.07348" lon="6.29456">
        <ele>844.7</ele>
      </trkpt>
      <trkpt lat="44.07344" lon="6.29448">
        <ele>846.6</ele>
      </trkpt>
      <trkpt lat="44.07338" lon="6.29443">
        <ele>847</ele>
      </trkpt>
      <trkpt lat="44.07332" lon="6.29444">
        <ele>846.8</ele>
      </trkpt>
      <trkpt lat="44.07322" lon="6.29468">
        <ele>845.9</ele>
      </trkpt>
      <trkpt lat="44.07298" lon="6.295">
        <ele>847.4</ele>
      </trkpt>
      <trkpt lat="44.07269" lon="6.29522">
        <ele>848.1</ele>
      </trkpt>
      <trkpt lat="44.07254" lon="6.29522">
        <ele>850.3</ele>
      </trkpt>
      <trkpt lat="44.07238" lon="6.29518">
        <ele>851.8</ele>
      </trkpt>
      <trkpt lat="44.07223" lon="6.29509">
        <ele>852.8</ele>
      </trkpt>
      <trkpt lat="44.07208" lon="6.29492">
        <ele>855.9</ele>
      </trkpt>
      <trkpt lat="44.07195" lon="6.29471">
        <ele>855.4</ele>
      </trkpt>
      <trkpt lat="44.07187" lon="6.29464">
        <ele>858.6</ele>
      </trkpt>
      <trkpt lat="44.07178" lon="6.29465">
        <ele>860.1</ele>
      </trkpt>
      <trkpt lat="44.07172" lon="6.29472">
        <ele>859.1</ele>
      </trkpt>
      <trkpt lat="44.0717" lon="6.29483">
        <ele>860.8</ele>
      </trkpt>
      <trkpt lat="44.07173" lon="6.29494">
        <ele>861.5</ele>
      </trkpt>
      <trkpt lat="44.07186" lon="6.29512">
        <ele>862.7</ele>
      </trkpt>
      <trkpt lat="44.07204" lon="6.29534">
        <ele>861.1</ele>
      </trkpt>
      <trkpt lat="44.07213" lon="6.29551">
        <ele>862.5</ele>
      </trkpt>
      <trkpt lat="44.07228" lon="6.29562">
        <ele>859.8</ele>
      </trkpt>
      <trkpt lat="44.07232" lon="6.29572">
        <ele>861.4</ele>
      </trkpt>
      <trkpt lat="44.07231" lon="6.29583">
        <ele>864.6</ele>
      </trkpt>
      <trkpt lat="44.07215" lon="6.2961">
        <ele>865.1</ele>
      </trkpt>
      <trkpt lat="44.07209" lon="6.29613">
        <ele>865.9</ele>
      </trkpt>
      <trkpt lat="44.07204" lon="6.29609">
        <ele>866.9</ele>
      </trkpt>
      <trkpt lat="44.07202" lon="6.29601">
        <ele>868.2</ele>
      </trkpt>
      <trkpt lat="44.07208" lon="6.29594">
        <ele>867.9</ele>
      </trkpt>
      <trkpt lat="44.07214" lon="6.29589">
        <ele>867.2</ele>
      </trkpt>
      <trkpt lat="44.07217" lon="6.29582">
        <ele>866.9</ele>
      </trkpt>
      <trkpt lat="44.07214" lon="6.29573">
        <ele>866.2</ele>
      </trkpt>
      <trkpt lat="44.07208" lon="6.29571">
        <ele>867.8</ele>
      </trkpt>
      <trkpt lat="44.07202" lon="6.29576">
        <ele>869.9</ele>
      </trkpt>
      <trkpt lat="44.07199" lon="6.29586">
        <ele>870.7</ele>
      </trkpt>
      <trkpt lat="44.07193" lon="6.29593">
        <ele>870.8</ele>
      </trkpt>
      <trkpt lat="44.07181" lon="6.29597">
        <ele>872.2</ele>
      </trkpt>
      <trkpt lat="44.07156" lon="6.29596">
        <ele>875.7</ele>
      </trkpt>
      <trkpt lat="44.07132" lon="6.29591">
        <ele>878.8</ele>
      </trkpt>
      <trkpt lat="44.07124" lon="6.29592">
        <ele>879.7</ele>
      </trkpt>
      <trkpt lat="44.07119" lon="6.29595">
        <ele>880.1</ele>
      </trkpt>
      <trkpt lat="44.07116" lon="6.29596">
        <ele>880.4</ele>
      </trkpt>
      <trkpt lat="44.0711" lon="6.29603">
        <ele>881</ele>
      </trkpt>
      <trkpt lat="44.07108" lon="6.29614">
        <ele>881.5</ele>
      </trkpt>
      <trkpt lat="44.07113" lon="6.29637">
        <ele>882.2</ele>
      </trkpt>
      <trkpt lat="44.07113" lon="6.29645">
        <ele>882.2</ele>
      </trkpt>
      <trkpt lat="44.07107" lon="6.29654">
        <ele>883.8</ele>
      </trkpt>
      <trkpt lat="44.07098" lon="6.29664">
        <ele>886.7</ele>
      </trkpt>
      <trkpt lat="44.07094" lon="6.29677">
        <ele>888.2</ele>
      </trkpt>
      <trkpt lat="44.07092" lon="6.29697">
        <ele>889.2</ele>
      </trkpt>
      <trkpt lat="44.07081" lon="6.29742">
        <ele>892.2</ele>
      </trkpt>
      <trkpt lat="44.07074" lon="6.29758">
        <ele>893.6</ele>
      </trkpt>
      <trkpt lat="44.07047" lon="6.29785">
        <ele>901.9</ele>
      </trkpt>
      <trkpt lat="44.07038" lon="6.29801">
        <ele>904.6</ele>
      </trkpt>
      <trkpt lat="44.07032" lon="6.2982">
        <ele>905.5</ele>
      </trkpt>
      <trkpt lat="44.07027" lon="6.29841">
        <ele>906</ele>
      </trkpt>
      <trkpt lat="44.07027" lon="6.29876">
        <ele>904</ele>
      </trkpt>
      <trkpt lat="44.07023" lon="6.29896">
        <ele>904.6</ele>
      </trkpt>
      <trkpt lat="44.07012" lon="6.29911">
        <ele>907.8</ele>
      </trkpt>
      <trkpt lat="44.06992" lon="6.29958">
        <ele>910.5</ele>
      </trkpt>
      <trkpt lat="44.06974" lon="6.29992">
        <ele>913.9</ele>
      </trkpt>
      <trkpt lat="44.06965" lon="6.30006">
        <ele>913.6</ele>
      </trkpt>
      <trkpt lat="44.06954" lon="6.30012">
        <ele>915.2</ele>
      </trkpt>
      <trkpt lat="44.06929" lon="6.30015">
        <ele>921.1</ele>
      </trkpt>
      <trkpt lat="44.0692" lon="6.30019">
        <ele>922.3</ele>
      </trkpt>
      <trkpt lat="44.06911" lon="6.30028">
        <ele>923.4</ele>
      </trkpt>
      <trkpt lat="44.06889" lon="6.30074">
        <ele>927</ele>
      </trkpt>
      <trkpt lat="44.06858" lon="6.30096">
        <ele>932.2</ele>
      </trkpt>
      <trkpt lat="44.06843" lon="6.30117">
        <ele>935</ele>
      </trkpt>
      <trkpt lat="44.0683" lon="6.30144">
        <ele>937.5</ele>
      </trkpt>
      <trkpt lat="44.06823" lon="6.30169">
        <ele>938.5</ele>
      </trkpt>
      <trkpt lat="44.0681" lon="6.30204">
        <ele>941.6</ele>
      </trkpt>
      <trkpt lat="44.06763" lon="6.30256">
        <ele>949.6</ele>
      </trkpt>
      <trkpt lat="44.06753" lon="6.30277">
        <ele>950.7</ele>
      </trkpt>
      <trkpt lat="44.06747" lon="6.30295">
        <ele>950.5</ele>
      </trkpt>
      <trkpt lat="44.06738" lon="6.30301">
        <ele>950.3</ele>
      </trkpt>
      <trkpt lat="44.06728" lon="6.303">
        <ele>950.5</ele>
      </trkpt>
      <trkpt lat="44.06713" lon="6.30293">
        <ele>951.7</ele>
      </trkpt>
      <trkpt lat="44.06701" lon="6.30292">
        <ele>952.2</ele>
      </trkpt>
      <trkpt lat="44.06687" lon="6.30298">
        <ele>952.4</ele>
      </trkpt>
      <trkpt lat="44.06674" lon="6.30321">
        <ele>953.2</ele>
      </trkpt>
      <trkpt lat="44.06664" lon="6.30338">
        <ele>954.6</ele>
      </trkpt>
      <trkpt lat="44.0665" lon="6.30357">
        <ele>956.8</ele>
      </trkpt>
      <trkpt lat="44.06623" lon="6.30382">
        <ele>959</ele>
      </trkpt>
      <trkpt lat="44.06603" lon="6.30415">
        <ele>959.6</ele>
      </trkpt>
      <trkpt lat="44.06593" lon="6.30431">
        <ele>961.3</ele>
      </trkpt>
      <trkpt lat="44.0659" lon="6.30445">
        <ele>962.5</ele>
      </trkpt>
      <trkpt lat="44.06591" lon="6.30458">
        <ele>963.2</ele>
      </trkpt>
      <trkpt lat="44.06593" lon="6.30467">
        <ele>963.7</ele>
      </trkpt>
      <trkpt lat="44.06602" lon="6.305">
        <ele>965.7</ele>
      </trkpt>
      <trkpt lat="44.06603" lon="6.30516">
        <ele>966.5</ele>
      </trkpt>
      <trkpt lat="44.066" lon="6.30529">
        <ele>967.1</ele>
      </trkpt>
      <trkpt lat="44.0659" lon="6.30556">
        <ele>970</ele>
      </trkpt>
      <trkpt lat="44.06575" lon="6.30583">
        <ele>972.7</ele>
      </trkpt>
      <trkpt lat="44.06566" lon="6.30605">
        <ele>975.5</ele>
      </trkpt>
      <trkpt lat="44.06556" lon="6.30616">
        <ele>976.9</ele>
      </trkpt>
      <trkpt lat="44.06526" lon="6.30626">
        <ele>977.5</ele>
      </trkpt>
      <trkpt lat="44.0652" lon="6.30635">
        <ele>978.5</ele>
      </trkpt>
      <trkpt lat="44.06522" lon="6.30644">
        <ele>980.3</ele>
      </trkpt>
      <trkpt lat="44.06527" lon="6.30651">
        <ele>982.1</ele>
      </trkpt>
      <trkpt lat="44.06541" lon="6.30654">
        <ele>983.2</ele>
      </trkpt>
      <trkpt lat="44.06585" lon="6.30671">
        <ele>985.9</ele>
      </trkpt>
      <trkpt lat="44.06592" lon="6.30679">
        <ele>987.5</ele>
      </trkpt>
      <trkpt lat="44.06593" lon="6.3069">
        <ele>990</ele>
      </trkpt>
      <trkpt lat="44.06586" lon="6.30696">
        <ele>991.4</ele>
      </trkpt>
      <trkpt lat="44.06563" lon="6.30689">
        <ele>991.1</ele>
      </trkpt>
      <trkpt lat="44.06535" lon="6.30689">
        <ele>991.5</ele>
      </trkpt>
      <trkpt lat="44.06519" lon="6.30698">
        <ele>992.8</ele>
      </trkpt>
      <trkpt lat="44.06501" lon="6.30736">
        <ele>1001.2</ele>
      </trkpt>
      <trkpt lat="44.06496" lon="6.30752">
        <ele>1004.6</ele>
      </trkpt>
      <trkpt lat="44.06494" lon="6.30768">
        <ele>1008.7</ele>
      </trkpt>
      <trkpt lat="44.06488" lon="6.3078">
        <ele>1010.7</ele>
      </trkpt>
      <trkpt lat="44.06479" lon="6.30783">
        <ele>1009.5</ele>
      </trkpt>
      <trkpt lat="44.06461" lon="6.30785">
        <ele>1006.2</ele>
      </trkpt>
      <trkpt lat="44.06443" lon="6.30798">
        <ele>1006.8</ele>
      </trkpt>
      <trkpt lat="44.06432" lon="6.30814">
        <ele>1008.8</ele>
      </trkpt>
      <trkpt lat="44.06425" lon="6.30842">
        <ele>1014.4</ele>
      </trkpt>
      <trkpt lat="44.0641" lon="6.30873">
        <ele>1015.5</ele>
      </trkpt>
      <trkpt lat="44.06411" lon="6.30889">
        <ele>1017</ele>
      </trkpt>
      <trkpt lat="44.06419" lon="6.309">
        <ele>1016.6</ele>
      </trkpt>
      <trkpt lat="44.06435" lon="6.30909">
        <ele>1019.3</ele>
      </trkpt>
      <trkpt lat="44.06449" lon="6.30922">
        <ele>1021.7</ele>
      </trkpt>
      <trkpt lat="44.06463" lon="6.3095">
        <ele>1021.8</ele>
      </trkpt>
      <trkpt lat="44.06472" lon="6.30957">
        <ele>1022.7</ele>
      </trkpt>
      <trkpt lat="44.06498" lon="6.30962">
        <ele>1026.2</ele>
      </trkpt>
      <trkpt lat="44.06523" lon="6.30957">
        <ele>1030.7</ele>
      </trkpt>
      <trkpt lat="44.06535" lon="6.30952">
        <ele>1032.7</ele>
      </trkpt>
      <trkpt lat="44.06549" lon="6.30955">
        <ele>1032.8</ele>
      </trkpt>
      <trkpt lat="44.06572" lon="6.30963">
        <ele>1031.7</ele>
      </trkpt>
      <trkpt lat="44.0659" lon="6.3098">
        <ele>1029.6</ele>
        <extensions>
          <visugpx:TrkExtension xmlns:visugpx="https://www.visugpx.com/editgpx/">
            <visugpx:node>2</visugpx:node>
            </visugpx:TrkExtension>
        </extensions>
      </trkpt>
      <trkpt lat="44.066" lon="6.3099">
        <ele>1028.1</ele>
      </trkpt>
      <trkpt lat="44.06633" lon="6.3102">
        <ele>1026.6</ele>
      </trkpt>
      <trkpt lat="44.06675" lon="6.31062">
        <ele>1027.5</ele>
      </trkpt>
      <trkpt lat="44.06687" lon="6.31069">
        <ele>1026.5</ele>
      </trkpt>
      <trkpt lat="44.06698" lon="6.31092">
        <ele>1027.2</ele>
      </trkpt>
      <trkpt lat="44.06719" lon="6.31119">
        <ele>1025</ele>
      </trkpt>
      <trkpt lat="44.06735" lon="6.31157">
        <ele>1026.2</ele>
      </trkpt>
      <trkpt lat="44.06743" lon="6.31171">
        <ele>1028.2</ele>
      </trkpt>
      <trkpt lat="44.06754" lon="6.31179">
        <ele>1030.4</ele>
      </trkpt>
      <trkpt lat="44.06785" lon="6.31176">
        <ele>1031.8</ele>
      </trkpt>
      <trkpt lat="44.068" lon="6.31171">
        <ele>1031.8</ele>
      </trkpt>
      <trkpt lat="44.06807" lon="6.3116">
        <ele>1030.6</ele>
      </trkpt>
      <trkpt lat="44.0681" lon="6.3112">
        <ele>1028.2</ele>
      </trkpt>
      <trkpt lat="44.0681" lon="6.31112">
        <ele>1027.8</ele>
      </trkpt>
      <trkpt lat="44.06815" lon="6.31102">
        <ele>1027.6</ele>
      </trkpt>
      <trkpt lat="44.06829" lon="6.31105">
        <ele>1030.4</ele>
      </trkpt>
      <trkpt lat="44.06845" lon="6.31136">
        <ele>1033.3</ele>
      </trkpt>
      <trkpt lat="44.06853" lon="6.31169">
        <ele>1036.8</ele>
      </trkpt>
      <trkpt lat="44.06881" lon="6.31194">
        <ele>1040.5</ele>
      </trkpt>
      <trkpt lat="44.06916" lon="6.31204">
        <ele>1042.1</ele>
      </trkpt>
      <trkpt lat="44.06958" lon="6.31204">
        <ele>1044.2</ele>
      </trkpt>
      <trkpt lat="44.06979" lon="6.31216">
        <ele>1045.3</ele>
      </trkpt>
      <trkpt lat="44.06982" lon="6.31233">
        <ele>1046.3</ele>
      </trkpt>
      <trkpt lat="44.06971" lon="6.31255">
        <ele>1050.5</ele>
      </trkpt>
      <trkpt lat="44.06968" lon="6.31275">
        <ele>1052.2</ele>
      </trkpt>
      <trkpt lat="44.06971" lon="6.31292">
        <ele>1053.7</ele>
      </trkpt>
      <trkpt lat="44.0699" lon="6.31309">
        <ele>1052.5</ele>
      </trkpt>
      <trkpt lat="44.07004" lon="6.31336">
        <ele>1056</ele>
        <extensions>
          <visugpx:TrkExtension xmlns:visugpx="https://www.visugpx.com/editgpx/">
            <visugpx:node>4</visugpx:node>
            </visugpx:TrkExtension>
        </extensions>
      </trkpt>
      <trkpt lat="44.07006" lon="6.31342">
        <ele>1056.9</ele>
      </trkpt>
      <trkpt lat="44.07025" lon="6.31363">
        <ele>1057.8</ele>
      </trkpt>
      <trkpt lat="44.0704" lon="6.31396">
        <ele>1060.9</ele>
      </trkpt>
      <trkpt lat="44.07044" lon="6.31435">
        <ele>1065.1</ele>
      </trkpt>
      <trkpt lat="44.07085" lon="6.31476">
        <ele>1069.9</ele>
      </trkpt>
      <trkpt lat="44.07112" lon="6.31473">
        <ele>1070.3</ele>
      </trkpt>
      <trkpt lat="44.07139" lon="6.31478">
        <ele>1074.1</ele>
      </trkpt>
      <trkpt lat="44.07159" lon="6.31464">
        <ele>1074.7</ele>
      </trkpt>
      <trkpt lat="44.07167" lon="6.31465">
        <ele>1076</ele>
      </trkpt>
      <trkpt lat="44.07169" lon="6.31479">
        <ele>1078.7</ele>
      </trkpt>
      <trkpt lat="44.07085" lon="6.31538">
        <ele>1084.9</ele>
      </trkpt>
      <trkpt lat="44.07016" lon="6.31531">
        <ele>1089.2</ele>
      </trkpt>
      <trkpt lat="44.06955" lon="6.31566">
        <ele>1095.2</ele>
      </trkpt>
      <trkpt lat="44.06924" lon="6.3157">
        <ele>1096.9</ele>
      </trkpt>
      <trkpt lat="44.06912" lon="6.31565">
        <ele>1097.5</ele>
      </trkpt>
      <trkpt lat="44.06881" lon="6.31553">
        <ele>1099.6</ele>
      </trkpt>
      <trkpt lat="44.06859" lon="6.31544">
        <ele>1101.3</ele>
      </trkpt>
      <trkpt lat="44.06859" lon="6.31561">
        <ele>1102.5</ele>
      </trkpt>
      <trkpt lat="44.06859" lon="6.31586">
        <ele>1104.3</ele>
      </trkpt>
      <trkpt lat="44.06852" lon="6.31606">
        <ele>1106.3</ele>
      </trkpt>
      <trkpt lat="44.0684" lon="6.31621">
        <ele>1108.2</ele>
      </trkpt>
      <trkpt lat="44.06811" lon="6.31622">
        <ele>1109.9</ele>
      </trkpt>
      <trkpt lat="44.06796" lon="6.31627">
        <ele>1110.1</ele>
      </trkpt>
      <trkpt lat="44.06771" lon="6.31664">
        <ele>1114.8</ele>
      </trkpt>
      <trkpt lat="44.06732" lon="6.31718">
        <ele>1121.3</ele>
      </trkpt>
      <trkpt lat="44.06732" lon="6.3172">
        <ele>1121.7</ele>
        <extensions>
          <visugpx:TrkExtension xmlns:visugpx="https://www.visugpx.com/editgpx/">
            <visugpx:node>5</visugpx:node>
            </visugpx:TrkExtension>
        </extensions>
      </trkpt>
      <trkpt lat="44.06719" lon="6.31765">
        <ele>1126.4</ele>
      </trkpt>
      <trkpt lat="44.06711" lon="6.31804">
        <ele>1130.4</ele>
      </trkpt>
      <trkpt lat="44.06695" lon="6.31824">
        <ele>1129.8</ele>
      </trkpt>
      <trkpt lat="44.06695" lon="6.3184">
        <ele>1132.1</ele>
      </trkpt>
      <trkpt lat="44.06703" lon="6.31852">
        <ele>1135.2</ele>
      </trkpt>
      <trkpt lat="44.0672" lon="6.31848">
        <ele>1137.7</ele>
      </trkpt>
      <trkpt lat="44.06741" lon="6.31837">
        <ele>1139.9</ele>
      </trkpt>
      <trkpt lat="44.06757" lon="6.31815">
        <ele>1141.4</ele>
      </trkpt>
      <trkpt lat="44.06777" lon="6.31798">
        <ele>1143.8</ele>
      </trkpt>
      <trkpt lat="44.0679" lon="6.31796">
        <ele>1144.6</ele>
      </trkpt>
      <trkpt lat="44.0681" lon="6.31804">
        <ele>1147.8</ele>
      </trkpt>
      <trkpt lat="44.06816" lon="6.31822">
        <ele>1151.9</ele>
      </trkpt>
      <trkpt lat="44.0682" lon="6.3186">
        <ele>1158.4</ele>
      </trkpt>
      <trkpt lat="44.06804" lon="6.31879">
        <ele>1159.3</ele>
      </trkpt>
      <trkpt lat="44.06776" lon="6.3192">
        <ele>1162.3</ele>
      </trkpt>
      <trkpt lat="44.0677" lon="6.31937">
        <ele>1164.3</ele>
        <extensions>
          <visugpx:TrkExtension xmlns:visugpx="https://www.visugpx.com/editgpx/">
            <visugpx:node>6</visugpx:node>
            </visugpx:TrkExtension>
        </extensions>
      </trkpt>
      <trkpt lat="44.06767" lon="6.31947">
        <ele>1165.5</ele>
      </trkpt>
      <trkpt lat="44.06761" lon="6.31956">
        <ele>1166.1</ele>
      </trkpt>
      <trkpt lat="44.0675" lon="6.31961">
        <ele>1165.6</ele>
      </trkpt>
      <trkpt lat="44.06749" lon="6.31967">
        <ele>1166.7</ele>
      </trkpt>
      <trkpt lat="44.06779" lon="6.31974">
        <ele>1171.5</ele>
      </trkpt>
      <trkpt lat="44.06787" lon="6.31981">
        <ele>1173.9</ele>
      </trkpt>
      <trkpt lat="44.06796" lon="6.31999">
        <ele>1178.8</ele>
      </trkpt>
      <trkpt lat="44.06809" lon="6.32006">
        <ele>1181.8</ele>
      </trkpt>
      <trkpt lat="44.0684" lon="6.32013">
        <ele>1186.4</ele>
      </trkpt>
      <trkpt lat="44.06909" lon="6.32004">
        <ele>1191.2</ele>
      </trkpt>
      <trkpt lat="44.06938" lon="6.32035">
        <ele>1195.7</ele>
      </trkpt>
      <trkpt lat="44.06955" lon="6.32062">
        <ele>1198.9</ele>
      </trkpt>
      <trkpt lat="44.06981" lon="6.32096">
        <ele>1201.2</ele>
      </trkpt>
      <trkpt lat="44.06979" lon="6.32108">
        <ele>1202.9</ele>
      </trkpt>
      <trkpt lat="44.06971" lon="6.32125">
        <ele>1205.2</ele>
      </trkpt>
      <trkpt lat="44.0696" lon="6.32141">
        <ele>1208.1</ele>
      </trkpt>
      <trkpt lat="44.06933" lon="6.32147">
        <ele>1212.4</ele>
      </trkpt>
      <trkpt lat="44.06899" lon="6.32128">
        <ele>1212.5</ele>
      </trkpt>
      <trkpt lat="44.06885" lon="6.32122">
        <ele>1212</ele>
      </trkpt>
      <trkpt lat="44.06866" lon="6.32126">
        <ele>1212.7</ele>
      </trkpt>
      <trkpt lat="44.06841" lon="6.32145">
        <ele>1215.4</ele>
      </trkpt>
      <trkpt lat="44.06834" lon="6.32157">
        <ele>1217.3</ele>
      </trkpt>
      <trkpt lat="44.0682" lon="6.3217">
        <ele>1217.6</ele>
      </trkpt>
      <trkpt lat="44.06817" lon="6.32186">
        <ele>1219.7</ele>
        <extensions>
          <visugpx:TrkExtension xmlns:visugpx="https://www.visugpx.com/editgpx/">
            <visugpx:node>7</visugpx:node>
            </visugpx:TrkExtension>
        </extensions>
      </trkpt>
      <trkpt lat="44.06816" lon="6.32189">
        <ele>1220</ele>
      </trkpt>
      <trkpt lat="44.06819" lon="6.32219">
        <ele>1225</ele>
      </trkpt>
      <trkpt lat="44.06806" lon="6.32241">
        <ele>1226.4</ele>
      </trkpt>
      <trkpt lat="44.06798" lon="6.32263">
        <ele>1228.4</ele>
      </trkpt>
      <trkpt lat="44.06794" lon="6.32284">
        <ele>1231.1</ele>
      </trkpt>
      <trkpt lat="44.06798" lon="6.32324">
        <ele>1236.7</ele>
      </trkpt>
      <trkpt lat="44.06806" lon="6.32339">
        <ele>1239.6</ele>
      </trkpt>
      <trkpt lat="44.06806" lon="6.32404">
        <ele>1246.7</ele>
      </trkpt>
      <trkpt lat="44.0679" lon="6.32443">
        <ele>1248.5</ele>
      </trkpt>
      <trkpt lat="44.06791" lon="6.32454">
        <ele>1251</ele>
      </trkpt>
      <trkpt lat="44.06797" lon="6.3246">
        <ele>1252.9</ele>
      </trkpt>
      <trkpt lat="44.06825" lon="6.32465">
        <ele>1255.6</ele>
      </trkpt>
      <trkpt lat="44.06853" lon="6.3247">
        <ele>1256.7</ele>
      </trkpt>
      <trkpt lat="44.06878" lon="6.32508">
        <ele>1262.2</ele>
      </trkpt>
      <trkpt lat="44.06899" lon="6.32518">
        <ele>1264.8</ele>
      </trkpt>
      <trkpt lat="44.06959" lon="6.32519">
        <ele>1264.4</ele>
      </trkpt>
      <trkpt lat="44.06971" lon="6.32541">
        <ele>1267.5</ele>
      </trkpt>
      <trkpt lat="44.06979" lon="6.32583">
        <ele>1273.5</ele>
        <extensions>
          <visugpx:TrkExtension xmlns:visugpx="https://www.visugpx.com/editgpx/">
            <visugpx:node>8</visugpx:node>
            </visugpx:TrkExtension>
        </extensions>
      </trkpt>
      <trkpt lat="44.06987" lon="6.32622">
        <ele>1278.8</ele>
      </trkpt>
      <trkpt lat="44.07004" lon="6.3265">
        <ele>1281.8</ele>
      </trkpt>
      <trkpt lat="44.07023" lon="6.32661">
        <ele>1282.9</ele>
      </trkpt>
      <trkpt lat="44.07101" lon="6.32663">
        <ele>1282.5</ele>
      </trkpt>
      <trkpt lat="44.07179" lon="6.32743">
        <ele>1291.4</ele>
        <extensions>
          <visugpx:TrkExtension xmlns:visugpx="https://www.visugpx.com/editgpx/">
            <visugpx:node>19</visugpx:node>
            </visugpx:TrkExtension>
        </extensions>
      </trkpt>
      <trkpt lat="44.07206" lon="6.32771">
        <ele>1293.6</ele>
      </trkpt>
      <trkpt lat="44.07216" lon="6.32795">
        <ele>1300</ele>
      </trkpt>
      <trkpt lat="44.0724" lon="6.32805">
        <ele>1299.6</ele>
      </trkpt>
      <trkpt lat="44.07251" lon="6.32816">
        <ele>1302</ele>
      </trkpt>
      <trkpt lat="44.07275" lon="6.32836">
        <ele>1307.4</ele>
      </trkpt>
      <trkpt lat="44.07303" lon="6.32835">
        <ele>1304.7</ele>
      </trkpt>
      <trkpt lat="44.07326" lon="6.3285">
        <ele>1306.6</ele>
      </trkpt>
      <trkpt lat="44.07365" lon="6.32875">
        <ele>1306.4</ele>
      </trkpt>
      <trkpt lat="44.07375" lon="6.32916">
        <ele>1315.3</ele>
      </trkpt>
      <trkpt lat="44.07415" lon="6.32942">
        <ele>1317.5</ele>
      </trkpt>
      <trkpt lat="44.07429" lon="6.32969">
        <ele>1323.8</ele>
      </trkpt>
      <trkpt lat="44.07499" lon="6.33066">
        <ele>1330.1</ele>
      </trkpt>
      <trkpt lat="44.07514" lon="6.33076">
        <ele>1331.2</ele>
      </trkpt>
      <trkpt lat="44.07537" lon="6.33082">
        <ele>1330.2</ele>
      </trkpt>
      <trkpt lat="44.07553" lon="6.33095">
        <ele>1332.6</ele>
      </trkpt>
      <trkpt lat="44.07579" lon="6.33121">
        <ele>1336.4</ele>
      </trkpt>
      <trkpt lat="44.07588" lon="6.3313">
        <ele>1337.8</ele>
      </trkpt>
      <trkpt lat="44.07594" lon="6.33136">
        <ele>1338.7</ele>
      </trkpt>
      <trkpt lat="44.07635" lon="6.33181">
        <ele>1345</ele>
      </trkpt>
      <trkpt lat="44.07728" lon="6.33253">
        <ele>1358.4</ele>
      </trkpt>
      <trkpt lat="44.07803" lon="6.33304">
        <ele>1368.7</ele>
      </trkpt>
      <trkpt lat="44.07888" lon="6.33338">
        <ele>1377.9</ele>
      </trkpt>
      <trkpt lat="44.08002" lon="6.33375">
        <ele>1389.4</ele>
      </trkpt>
      <trkpt lat="44.0806" lon="6.33402">
        <ele>1393.4</ele>
      </trkpt>
      <trkpt lat="44.08077" lon="6.33424">
        <ele>1395.4</ele>
      </trkpt>
      <trkpt lat="44.08065" lon="6.3343">
        <ele>1400.5</ele>
      </trkpt>
      <trkpt lat="44.0805" lon="6.3342">
        <ele>1401.1</ele>
      </trkpt>
      <trkpt lat="44.08008" lon="6.33438">
        <ele>1414.4</ele>
        <extensions>
          <visugpx:TrkExtension xmlns:visugpx="https://www.visugpx.com/editgpx/">
            <visugpx:node>20</visugpx:node>
            </visugpx:TrkExtension>
        </extensions>
      </trkpt>
      <trkpt lat="44.07986" lon="6.33447">
        <ele>1419.5</ele>
      </trkpt>
      <trkpt lat="44.07905" lon="6.33476">
        <ele>1433.8</ele>
        <extensions>
          <visugpx:TrkExtension xmlns:visugpx="https://www.visugpx.com/editgpx/">
            <visugpx:node>21</visugpx:node>
            </visugpx:TrkExtension>
        </extensions>
      </trkpt>
      <trkpt lat="44.07896" lon="6.33479">
        <ele>1435.4</ele>
        <extensions>
          <visugpx:TrkExtension xmlns:visugpx="https://www.visugpx.com/editgpx/">
            <visugpx:node>19</visugpx:node>
            </visugpx:TrkExtension>
        </extensions>
      </trkpt>
      <trkpt lat="44.07948" lon="6.33501">
        <ele>1441.4</ele>
      </trkpt>
      <trkpt lat="44.08036" lon="6.33528">
        <ele>1445</ele>
      </trkpt>
      <trkpt lat="44.07977" lon="6.33554">
        <ele>1463</ele>
      </trkpt>
      <trkpt lat="44.07928" lon="6.33572">
        <ele>1473.4</ele>
      </trkpt>
      <trkpt lat="44.07893" lon="6.33583">
        <ele>1481.5</ele>
      </trkpt>
      <trkpt lat="44.07926" lon="6.33605">
        <ele>1491</ele>
      </trkpt>
      <trkpt lat="44.08031" lon="6.33634">
        <ele>1494.5</ele>
      </trkpt>
      <trkpt lat="44.08054" lon="6.33663">
        <ele>1503.5</ele>
      </trkpt>
      <trkpt lat="44.07921" lon="6.33677">
        <ele>1531.2</ele>
      </trkpt>
      <trkpt lat="44.07815" lon="6.33663">
        <ele>1537.2</ele>
      </trkpt>
      <trkpt lat="44.07868" lon="6.33703">
        <ele>1551.6</ele>
      </trkpt>
      <trkpt lat="44.07992" lon="6.33754">
        <ele>1569.4</ele>
      </trkpt>
      <trkpt lat="44.08021" lon="6.33776">
        <ele>1577.4</ele>
      </trkpt>
      <trkpt lat="44.07941" lon="6.33795">
        <ele>1594.2</ele>
      </trkpt>
      <trkpt lat="44.07913" lon="6.3381">
        <ele>1602</ele>
      </trkpt>
      <trkpt lat="44.07898" lon="6.33809">
        <ele>1602.4</ele>
      </trkpt>
      <trkpt lat="44.07865" lon="6.33815">
        <ele>1611.5</ele>
      </trkpt>
      <trkpt lat="44.07873" lon="6.33822">
        <ele>1617.8</ele>
      </trkpt>
      <trkpt lat="44.07867" lon="6.33827">
        <ele>1623.6</ele>
      </trkpt>
      <trkpt lat="44.07868" lon="6.33832">
        <ele>1628.6</ele>
      </trkpt>
      <trkpt lat="44.07878" lon="6.33828">
        <ele>1623.2</ele>
      </trkpt>
      <trkpt lat="44.07886" lon="6.33831">
        <ele>1625.1</ele>
      </trkpt>
      <trkpt lat="44.07895" lon="6.33826">
        <ele>1619.5</ele>
      </trkpt>
      <trkpt lat="44.07901" lon="6.33831">
        <ele>1624.2</ele>
      </trkpt>
      <trkpt lat="44.07908" lon="6.33833">
        <ele>1626</ele>
      </trkpt>
      <trkpt lat="44.07895" lon="6.33838">
        <ele>1631.7</ele>
      </trkpt>
      <trkpt lat="44.07891" lon="6.33843">
        <ele>1637.3</ele>
      </trkpt>
      <trkpt lat="44.07878" lon="6.33849">
        <ele>1644.8</ele>
      </trkpt>
      <trkpt lat="44.07899" lon="6.33855">
        <ele>1649.5</ele>
      </trkpt>
      <trkpt lat="44.07913" lon="6.33865">
        <ele>1658.9</ele>
      </trkpt>
      <trkpt lat="44.07919" lon="6.33862">
        <ele>1654.9</ele>
      </trkpt>
      <trkpt lat="44.0793" lon="6.33869">
        <ele>1663.1</ele>
      </trkpt>
      <trkpt lat="44.07941" lon="6.3387">
        <ele>1664.5</ele>
      </trkpt>
      <trkpt lat="44.07961" lon="6.33866">
        <ele>1660.3</ele>
      </trkpt>
      <trkpt lat="44.0797" lon="6.33868">
        <ele>1663.7</ele>
        <extensions>
          <visugpx:TrkExtension xmlns:visugpx="https://www.visugpx.com/editgpx/">
            <visugpx:node>9</visugpx:node>
            </visugpx:TrkExtension>
        </extensions>
      </trkpt>
      <trkpt lat="44.07966" lon="6.33872">
        <ele>1668.7</ele>
      </trkpt>
      <trkpt lat="44.07973" lon="6.33874">
        <ele>1671.8</ele>
      </trkpt>
      <trkpt lat="44.07984" lon="6.33874">
        <ele>1673.4</ele>
      </trkpt>
      <trkpt lat="44.07993" lon="6.3387">
        <ele>1669.8</ele>
      </trkpt>
      <trkpt lat="44.0802" lon="6.33871">
        <ele>1670.2</ele>
      </trkpt>
      <trkpt lat="44.0804" lon="6.33878">
        <ele>1675.3</ele>
      </trkpt>
      <trkpt lat="44.08066" lon="6.3388">
        <ele>1669.6</ele>
      </trkpt>
      <trkpt lat="44.08082" lon="6.33893">
        <ele>1672.9</ele>
      </trkpt>
      <trkpt lat="44.08114" lon="6.33911">
        <ele>1671</ele>
      </trkpt>
      <trkpt lat="44.08116" lon="6.33916">
        <ele>1674</ele>
      </trkpt>
      <trkpt lat="44.0809" lon="6.3394">
        <ele>1671.4</ele>
      </trkpt>
      <trkpt lat="44.08091" lon="6.33944">
        <ele>1670</ele>
      </trkpt>
      <trkpt lat="44.08135" lon="6.33949">
        <ele>1662.9</ele>
      </trkpt>
      <trkpt lat="44.0818" lon="6.33963">
        <ele>1654.3</ele>
      </trkpt>
      <trkpt lat="44.08184" lon="6.33962">
        <ele>1654.5</ele>
      </trkpt>
      <trkpt lat="44.08201" lon="6.33973">
        <ele>1651</ele>
      </trkpt>
      <trkpt lat="44.08222" lon="6.33977">
        <ele>1650.4</ele>
      </trkpt>
      <trkpt lat="44.08226" lon="6.33985">
        <ele>1648.2</ele>
      </trkpt>
      <trkpt lat="44.08241" lon="6.33998">
        <ele>1645.6</ele>
      </trkpt>
      <trkpt lat="44.08217" lon="6.34003">
        <ele>1641.9</ele>
      </trkpt>
      <trkpt lat="44.08194" lon="6.34015">
        <ele>1637.7</ele>
      </trkpt>
      <trkpt lat="44.0819" lon="6.34019">
        <ele>1636.6</ele>
      </trkpt>
      <trkpt lat="44.08202" lon="6.34027">
        <ele>1634.2</ele>
      </trkpt>
      <trkpt lat="44.08206" lon="6.34038">
        <ele>1631.2</ele>
      </trkpt>
      <trkpt lat="44.0823" lon="6.34051">
        <ele>1628.5</ele>
      </trkpt>
      <trkpt lat="44.08235" lon="6.34056">
        <ele>1627.3</ele>
      </trkpt>
      <trkpt lat="44.08242" lon="6.34074">
        <ele>1621.7</ele>
      </trkpt>
      <trkpt lat="44.08247" lon="6.34075">
        <ele>1621.6</ele>
      </trkpt>
      <trkpt lat="44.08259" lon="6.34097">
        <ele>1615.7</ele>
      </trkpt>
      <trkpt lat="44.08364" lon="6.34106">
        <ele>1617.2</ele>
      </trkpt>
      <trkpt lat="44.08469" lon="6.3412">
        <ele>1617.3</ele>
      </trkpt>
      <trkpt lat="44.08534" lon="6.34116">
        <ele>1619.1</ele>
      </trkpt>
      <trkpt lat="44.08613" lon="6.34118">
        <ele>1621.2</ele>
      </trkpt>
      <trkpt lat="44.08657" lon="6.34124">
        <ele>1621</ele>
      </trkpt>
      <trkpt lat="44.0876" lon="6.3411">
        <ele>1626</ele>
      </trkpt>
      <trkpt lat="44.08978" lon="6.34088">
        <ele>1630</ele>
      </trkpt>
      <trkpt lat="44.09048" lon="6.34094">
        <ele>1627.4</ele>
      </trkpt>
      <trkpt lat="44.09113" lon="6.34088">
        <ele>1630.3</ele>
      </trkpt>
      <trkpt lat="44.09133" lon="6.34093">
        <ele>1629.7</ele>
      </trkpt>
      <trkpt lat="44.09195" lon="6.34098">
        <ele>1632.2</ele>
      </trkpt>
      <trkpt lat="44.09302" lon="6.34122">
        <ele>1632.2</ele>
      </trkpt>
      <trkpt lat="44.09399" lon="6.34174">
        <ele>1627.8</ele>
      </trkpt>
      <trkpt lat="44.09498" lon="6.34239">
        <ele>1624.8</ele>
      </trkpt>
      <trkpt lat="44.09524" lon="6.34267">
        <ele>1623.2</ele>
      </trkpt>
      <trkpt lat="44.0956" lon="6.34293">
        <ele>1623.5</ele>
        <extensions>
          <visugpx:TrkExtension xmlns:visugpx="https://www.visugpx.com/editgpx/">
            <visugpx:node>10</visugpx:node>
            </visugpx:TrkExtension>
        </extensions>
      </trkpt>
      <trkpt lat="44.09562" lon="6.34294">
        <ele>1623.8</ele>
      </trkpt>
      <trkpt lat="44.09568" lon="6.34314">
        <ele>1623</ele>
      </trkpt>
      <trkpt lat="44.09559" lon="6.34357">
        <ele>1621.2</ele>
      </trkpt>
      <trkpt lat="44.09536" lon="6.34406">
        <ele>1615.8</ele>
      </trkpt>
      <trkpt lat="44.0951" lon="6.34514">
        <ele>1612.4</ele>
      </trkpt>
      <trkpt lat="44.09477" lon="6.3463">
        <ele>1599.3</ele>
      </trkpt>
      <trkpt lat="44.09437" lon="6.34752">
        <ele>1582.3</ele>
      </trkpt>
      <trkpt lat="44.09423" lon="6.34815">
        <ele>1575.1</ele>
      </trkpt>
      <trkpt lat="44.09425" lon="6.34948">
        <ele>1562.9</ele>
      </trkpt>
      <trkpt lat="44.09434" lon="6.34956">
        <ele>1566.7</ele>
      </trkpt>
      <trkpt lat="44.09419" lon="6.35008">
        <ele>1555.7</ele>
      </trkpt>
      <trkpt lat="44.09418" lon="6.35064">
        <ele>1553.6</ele>
      </trkpt>
      <trkpt lat="44.09401" lon="6.35095">
        <ele>1546</ele>
      </trkpt>
      <trkpt lat="44.09406" lon="6.35185">
        <ele>1538.8</ele>
      </trkpt>
      <trkpt lat="44.09406" lon="6.35208">
        <ele>1537.1</ele>
      </trkpt>
      <trkpt lat="44.09403" lon="6.35227">
        <ele>1533.7</ele>
      </trkpt>
      <trkpt lat="44.09401" lon="6.3527">
        <ele>1526.9</ele>
      </trkpt>
      <trkpt lat="44.09405" lon="6.35291">
        <ele>1525.4</ele>
      </trkpt>
      <trkpt lat="44.09422" lon="6.35331">
        <ele>1529.6</ele>
      </trkpt>
      <trkpt lat="44.09424" lon="6.35357">
        <ele>1530.9</ele>
      </trkpt>
      <trkpt lat="44.09413" lon="6.35377">
        <ele>1526.5</ele>
      </trkpt>
      <trkpt lat="44.09334" lon="6.35562">
        <ele>1518.3</ele>
      </trkpt>
      <trkpt lat="44.09279" lon="6.35661">
        <ele>1511.7</ele>
      </trkpt>
      <trkpt lat="44.09238" lon="6.35781">
        <ele>1508.3</ele>
      </trkpt>
      <trkpt lat="44.09213" lon="6.35846">
        <ele>1501.4</ele>
      </trkpt>
      <trkpt lat="44.09209" lon="6.35952">
        <ele>1503.8</ele>
      </trkpt>
      <trkpt lat="44.09179" lon="6.3603">
        <ele>1497.7</ele>
      </trkpt>
      <trkpt lat="44.09164" lon="6.36096">
        <ele>1489.5</ele>
      </trkpt>
      <trkpt lat="44.09176" lon="6.36118">
        <ele>1496.6</ele>
      </trkpt>
      <trkpt lat="44.09185" lon="6.36172">
        <ele>1503.7</ele>
      </trkpt>
      <trkpt lat="44.09173" lon="6.36214">
        <ele>1503.8</ele>
      </trkpt>
      <trkpt lat="44.09178" lon="6.3626">
        <ele>1506.6</ele>
      </trkpt>
      <trkpt lat="44.09195" lon="6.36317">
        <ele>1512</ele>
      </trkpt>
      <trkpt lat="44.09234" lon="6.36371">
        <ele>1519.5</ele>
      </trkpt>
      <trkpt lat="44.09247" lon="6.36458">
        <ele>1524.2</ele>
      </trkpt>
      <trkpt lat="44.09268" lon="6.36575">
        <ele>1536.8</ele>
      </trkpt>
      <trkpt lat="44.09269" lon="6.36623">
        <ele>1540.5</ele>
      </trkpt>
      <trkpt lat="44.09255" lon="6.36666">
        <ele>1536.1</ele>
      </trkpt>
      <trkpt lat="44.09257" lon="6.36673">
        <ele>1536.5</ele>
      </trkpt>
      <trkpt lat="44.09261" lon="6.36676">
        <ele>1537</ele>
      </trkpt>
      <trkpt lat="44.09278" lon="6.36665">
        <ele>1541.1</ele>
      </trkpt>
      <trkpt lat="44.09346" lon="6.36574">
        <ele>1547.4</ele>
      </trkpt>
      <trkpt lat="44.09419" lon="6.36497">
        <ele>1553.3</ele>
      </trkpt>
      <trkpt lat="44.09497" lon="6.36394">
        <ele>1560.3</ele>
      </trkpt>
      <trkpt lat="44.09523" lon="6.3637">
        <ele>1561</ele>
      </trkpt>
      <trkpt lat="44.09531" lon="6.36322">
        <ele>1565.3</ele>
      </trkpt>
      <trkpt lat="44.09549" lon="6.36305">
        <ele>1565.2</ele>
      </trkpt>
      <trkpt lat="44.0957" lon="6.36294">
        <ele>1567.2</ele>
      </trkpt>
      <trkpt lat="44.09599" lon="6.36295">
        <ele>1566.1</ele>
      </trkpt>
      <trkpt lat="44.09632" lon="6.3628">
        <ele>1569</ele>
      </trkpt>
      <trkpt lat="44.09654" lon="6.36253">
        <ele>1572.2</ele>
      </trkpt>
      <trkpt lat="44.0968" lon="6.3624">
        <ele>1572</ele>
      </trkpt>
      <trkpt lat="44.09707" lon="6.36203">
        <ele>1579.6</ele>
      </trkpt>
      <trkpt lat="44.09715" lon="6.36202">
        <ele>1579.1</ele>
        <extensions>
          <visugpx:TrkExtension xmlns:visugpx="https://www.visugpx.com/editgpx/">
            <visugpx:node>11</visugpx:node>
            </visugpx:TrkExtension>
        </extensions>
      </trkpt>
      <trkpt lat="44.09733" lon="6.36198">
        <ele>1578.2</ele>
      </trkpt>
      <trkpt lat="44.09773" lon="6.36146">
        <ele>1586.1</ele>
      </trkpt>
      <trkpt lat="44.09821" lon="6.36118">
        <ele>1587.7</ele>
      </trkpt>
      <trkpt lat="44.09887" lon="6.36065">
        <ele>1596.2</ele>
      </trkpt>
      <trkpt lat="44.0991" lon="6.36046">
        <ele>1599</ele>
      </trkpt>
      <trkpt lat="44.09927" lon="6.36025">
        <ele>1604.8</ele>
      </trkpt>
      <trkpt lat="44.0994" lon="6.3601">
        <ele>1608.7</ele>
      </trkpt>
      <trkpt lat="44.09964" lon="6.35998">
        <ele>1609.4</ele>
      </trkpt>
      <trkpt lat="44.09983" lon="6.35988">
        <ele>1609.9</ele>
      </trkpt>
      <trkpt lat="44.09995" lon="6.35988">
        <ele>1608.7</ele>
      </trkpt>
      <trkpt lat="44.10004" lon="6.35983">
        <ele>1608.1</ele>
      </trkpt>
      <trkpt lat="44.10014" lon="6.35962">
        <ele>1611.1</ele>
      </trkpt>
      <trkpt lat="44.10035" lon="6.35943">
        <ele>1613</ele>
      </trkpt>
      <trkpt lat="44.10056" lon="6.3593">
        <ele>1613.1</ele>
      </trkpt>
      <trkpt lat="44.10073" lon="6.35904">
        <ele>1618.5</ele>
      </trkpt>
      <trkpt lat="44.10102" lon="6.35874">
        <ele>1625.7</ele>
      </trkpt>
      <trkpt lat="44.10133" lon="6.35876">
        <ele>1624.9</ele>
      </trkpt>
      <trkpt lat="44.10159" lon="6.35858">
        <ele>1630.4</ele>
      </trkpt>
      <trkpt lat="44.10189" lon="6.35848">
        <ele>1632.2</ele>
      </trkpt>
      <trkpt lat="44.102" lon="6.35827">
        <ele>1638</ele>
      </trkpt>
      <trkpt lat="44.1022" lon="6.35823">
        <ele>1639.9</ele>
      </trkpt>
      <trkpt lat="44.10256" lon="6.35827">
        <ele>1641.9</ele>
      </trkpt>
      <trkpt lat="44.10286" lon="6.35817">
        <ele>1645.6</ele>
      </trkpt>
      <trkpt lat="44.10314" lon="6.35802">
        <ele>1649.7</ele>
      </trkpt>
      <trkpt lat="44.10418" lon="6.35738">
        <ele>1661.3</ele>
      </trkpt>
      <trkpt lat="44.10431" lon="6.35721">
        <ele>1664.3</ele>
      </trkpt>
      <trkpt lat="44.10454" lon="6.35706">
        <ele>1667.8</ele>
      </trkpt>
      <trkpt lat="44.10482" lon="6.35717">
        <ele>1669.4</ele>
      </trkpt>
      <trkpt lat="44.10499" lon="6.3573">
        <ele>1669.8</ele>
      </trkpt>
      <trkpt lat="44.1052" lon="6.3576">
        <ele>1667.4</ele>
      </trkpt>
      <trkpt lat="44.10557" lon="6.35796">
        <ele>1668.6</ele>
      </trkpt>
      <trkpt lat="44.10579" lon="6.35828">
        <ele>1667.3</ele>
      </trkpt>
      <trkpt lat="44.10586" lon="6.3583">
        <ele>1667.6</ele>
      </trkpt>
      <trkpt lat="44.10592" lon="6.35827">
        <ele>1668.2</ele>
      </trkpt>
      <trkpt lat="44.1065" lon="6.35828">
        <ele>1662.7</ele>
      </trkpt>
      <trkpt lat="44.1067" lon="6.35841">
        <ele>1658.2</ele>
      </trkpt>
      <trkpt lat="44.10688" lon="6.35836">
        <ele>1653.8</ele>
      </trkpt>
      <trkpt lat="44.10706" lon="6.35828">
        <ele>1650.8</ele>
      </trkpt>
      <trkpt lat="44.10755" lon="6.35756">
        <ele>1636.1</ele>
      </trkpt>
      <trkpt lat="44.10808" lon="6.35691">
        <ele>1613</ele>
      </trkpt>
      <trkpt lat="44.10818" lon="6.35673">
        <ele>1598.1</ele>
      </trkpt>
      <trkpt lat="44.10825" lon="6.357">
        <ele>1612.5</ele>
      </trkpt>
      <trkpt lat="44.1085" lon="6.35724">
        <ele>1618.7</ele>
      </trkpt>
      <trkpt lat="44.10866" lon="6.35726">
        <ele>1615.5</ele>
      </trkpt>
      <trkpt lat="44.10843" lon="6.35697">
        <ele>1603.2</ele>
      </trkpt>
      <trkpt lat="44.10834" lon="6.35678">
        <ele>1595.1</ele>
      </trkpt>
      <trkpt lat="44.10845" lon="6.35689">
        <ele>1597.3</ele>
      </trkpt>
      <trkpt lat="44.10863" lon="6.35702">
        <ele>1598.6</ele>
      </trkpt>
      <trkpt lat="44.10876" lon="6.35699">
        <ele>1595.8</ele>
      </trkpt>
      <trkpt lat="44.10892" lon="6.35688">
        <ele>1589</ele>
      </trkpt>
      <trkpt lat="44.10881" lon="6.35676">
        <ele>1584.2</ele>
      </trkpt>
      <trkpt lat="44.10863" lon="6.35672">
        <ele>1581.7</ele>
      </trkpt>
      <trkpt lat="44.10859" lon="6.35665">
        <ele>1578.9</ele>
      </trkpt>
      <trkpt lat="44.10851" lon="6.35657">
        <ele>1577.6</ele>
      </trkpt>
      <trkpt lat="44.10842" lon="6.35657">
        <ele>1580.4</ele>
      </trkpt>
      <trkpt lat="44.10843" lon="6.3565">
        <ele>1576.7</ele>
      </trkpt>
      <trkpt lat="44.1085" lon="6.35646">
        <ele>1572.6</ele>
      </trkpt>
      <trkpt lat="44.10873" lon="6.35653">
        <ele>1572.2</ele>
      </trkpt>
      <trkpt lat="44.10879" lon="6.35652">
        <ele>1571.4</ele>
      </trkpt>
      <trkpt lat="44.10882" lon="6.35646">
        <ele>1567.8</ele>
      </trkpt>
      <trkpt lat="44.10839" lon="6.35622">
        <ele>1568</ele>
        <extensions>
          <visugpx:TrkExtension xmlns:visugpx="https://www.visugpx.com/editgpx/">
            <visugpx:node>12</visugpx:node>
            </visugpx:TrkExtension>
        </extensions>
      </trkpt>
      <trkpt lat="44.10852" lon="6.35602">
        <ele>1555.3</ele>
      </trkpt>
      <trkpt lat="44.1088" lon="6.35598">
        <ele>1541.4</ele>
      </trkpt>
      <trkpt lat="44.10922" lon="6.35577">
        <ele>1525.2</ele>
      </trkpt>
      <trkpt lat="44.10967" lon="6.3557">
        <ele>1518.6</ele>
      </trkpt>
      <trkpt lat="44.10935" lon="6.35552">
        <ele>1510.9</ele>
      </trkpt>
      <trkpt lat="44.10904" lon="6.3555">
        <ele>1513.9</ele>
      </trkpt>
      <trkpt lat="44.10902" lon="6.35537">
        <ele>1509.9</ele>
      </trkpt>
      <trkpt lat="44.10911" lon="6.35526">
        <ele>1502.9</ele>
      </trkpt>
      <trkpt lat="44.10938" lon="6.35514">
        <ele>1492.7</ele>
      </trkpt>
      <trkpt lat="44.10959" lon="6.35501">
        <ele>1484.4</ele>
      </trkpt>
      <trkpt lat="44.10958" lon="6.35495">
        <ele>1482.2</ele>
      </trkpt>
      <trkpt lat="44.1094" lon="6.35494">
        <ele>1484.5</ele>
      </trkpt>
      <trkpt lat="44.10934" lon="6.35484">
        <ele>1484.2</ele>
      </trkpt>
      <trkpt lat="44.10929" lon="6.3547">
        <ele>1484.1</ele>
      </trkpt>
      <trkpt lat="44.10931" lon="6.35442">
        <ele>1479.5</ele>
      </trkpt>
      <trkpt lat="44.1093" lon="6.35416">
        <ele>1478.3</ele>
      </trkpt>
      <trkpt lat="44.10932" lon="6.35405">
        <ele>1475</ele>
      </trkpt>
      <trkpt lat="44.10937" lon="6.35409">
        <ele>1471.7</ele>
      </trkpt>
      <trkpt lat="44.10943" lon="6.35434">
        <ele>1469.4</ele>
      </trkpt>
      <trkpt lat="44.10958" lon="6.3544">
        <ele>1464.7</ele>
      </trkpt>
      <trkpt lat="44.10973" lon="6.35434">
        <ele>1458.5</ele>
      </trkpt>
      <trkpt lat="44.10996" lon="6.35418">
        <ele>1450</ele>
      </trkpt>
      <trkpt lat="44.1099" lon="6.35412">
        <ele>1449</ele>
      </trkpt>
      <trkpt lat="44.10978" lon="6.35403">
        <ele>1448.5</ele>
      </trkpt>
      <trkpt lat="44.10971" lon="6.35389">
        <ele>1446.8</ele>
      </trkpt>
      <trkpt lat="44.10972" lon="6.35375">
        <ele>1444.6</ele>
      </trkpt>
      <trkpt lat="44.10983" lon="6.35346">
        <ele>1437.3</ele>
      </trkpt>
      <trkpt lat="44.10974" lon="6.35325">
        <ele>1437.8</ele>
      </trkpt>
      <trkpt lat="44.10961" lon="6.35284">
        <ele>1435.9</ele>
      </trkpt>
      <trkpt lat="44.10962" lon="6.3521">
        <ele>1424.5</ele>
      </trkpt>
      <trkpt lat="44.1096" lon="6.35154">
        <ele>1416.6</ele>
      </trkpt>
      <trkpt lat="44.10945" lon="6.35083">
        <ele>1405.6</ele>
      </trkpt>
      <trkpt lat="44.10915" lon="6.34954">
        <ele>1388.3</ele>
      </trkpt>
      <trkpt lat="44.10904" lon="6.34886">
        <ele>1377.9</ele>
      </trkpt>
      <trkpt lat="44.10902" lon="6.34849">
        <ele>1372.1</ele>
      </trkpt>
      <trkpt lat="44.10899" lon="6.34846">
        <ele>1372.8</ele>
      </trkpt>
      <trkpt lat="44.10896" lon="6.34833">
        <ele>1371.4</ele>
      </trkpt>
      <trkpt lat="44.10891" lon="6.34747">
        <ele>1360.5</ele>
      </trkpt>
      <trkpt lat="44.10854" lon="6.34658">
        <ele>1347</ele>
      </trkpt>
      <trkpt lat="44.10835" lon="6.34364">
        <ele>1305.1</ele>
      </trkpt>
      <trkpt lat="44.10821" lon="6.3432">
        <ele>1300.7</ele>
      </trkpt>
      <trkpt lat="44.10808" lon="6.3428">
        <ele>1295</ele>
      </trkpt>
      <trkpt lat="44.10811" lon="6.34274">
        <ele>1293.2</ele>
      </trkpt>
      <trkpt lat="44.10817" lon="6.34273">
        <ele>1291.8</ele>
      </trkpt>
      <trkpt lat="44.10864" lon="6.34291">
        <ele>1284.1</ele>
      </trkpt>
      <trkpt lat="44.1087" lon="6.34292">
        <ele>1282.8</ele>
      </trkpt>
      <trkpt lat="44.10873" lon="6.34287">
        <ele>1281</ele>
      </trkpt>
      <trkpt lat="44.1087" lon="6.34281">
        <ele>1280.5</ele>
      </trkpt>
      <trkpt lat="44.10847" lon="6.34258">
        <ele>1281.4</ele>
      </trkpt>
      <trkpt lat="44.10828" lon="6.34244">
        <ele>1282</ele>
      </trkpt>
      <trkpt lat="44.10811" lon="6.34243">
        <ele>1285.3</ele>
      </trkpt>
      <trkpt lat="44.10754" lon="6.34213">
        <ele>1286.6</ele>
      </trkpt>
      <trkpt lat="44.10708" lon="6.34178">
        <ele>1278.3</ele>
      </trkpt>
      <trkpt lat="44.10679" lon="6.34149">
        <ele>1263.6</ele>
      </trkpt>
      <trkpt lat="44.1067" lon="6.34149">
        <ele>1262.2</ele>
      </trkpt>
      <trkpt lat="44.10659" lon="6.34163">
        <ele>1264.4</ele>
      </trkpt>
      <trkpt lat="44.10649" lon="6.34184">
        <ele>1268.8</ele>
      </trkpt>
      <trkpt lat="44.10638" lon="6.34187">
        <ele>1266.5</ele>
      </trkpt>
      <trkpt lat="44.10629" lon="6.34181">
        <ele>1263</ele>
      </trkpt>
      <trkpt lat="44.10583" lon="6.3419">
        <ele>1260.9</ele>
      </trkpt>
      <trkpt lat="44.10565" lon="6.34185">
        <ele>1257.3</ele>
      </trkpt>
      <trkpt lat="44.10569" lon="6.34174">
        <ele>1252.4</ele>
      </trkpt>
      <trkpt lat="44.10588" lon="6.34168">
        <ele>1251.4</ele>
      </trkpt>
      <trkpt lat="44.10616" lon="6.34144">
        <ele>1246.8</ele>
      </trkpt>
      <trkpt lat="44.10614" lon="6.34135">
        <ele>1242.8</ele>
      </trkpt>
      <trkpt lat="44.10586" lon="6.34139">
        <ele>1239.5</ele>
      </trkpt>
      <trkpt lat="44.10571" lon="6.34135">
        <ele>1236.8</ele>
      </trkpt>
      <trkpt lat="44.10573" lon="6.34125">
        <ele>1233.4</ele>
      </trkpt>
      <trkpt lat="44.10587" lon="6.34111">
        <ele>1229.4</ele>
      </trkpt>
      <trkpt lat="44.10587" lon="6.34104">
        <ele>1226.8</ele>
      </trkpt>
      <trkpt lat="44.10579" lon="6.34094">
        <ele>1222.8</ele>
      </trkpt>
      <trkpt lat="44.10558" lon="6.34094">
        <ele>1222.5</ele>
      </trkpt>
      <trkpt lat="44.1055" lon="6.34084">
        <ele>1219.8</ele>
      </trkpt>
      <trkpt lat="44.10542" lon="6.34059">
        <ele>1214.3</ele>
      </trkpt>
      <trkpt lat="44.1053" lon="6.34048">
        <ele>1214.7</ele>
      </trkpt>
      <trkpt lat="44.10521" lon="6.34028">
        <ele>1215.7</ele>
      </trkpt>
      <trkpt lat="44.10525" lon="6.34006">
        <ele>1214</ele>
      </trkpt>
      <trkpt lat="44.10532" lon="6.33992">
        <ele>1210.6</ele>
      </trkpt>
      <trkpt lat="44.10528" lon="6.33941">
        <ele>1209.6</ele>
      </trkpt>
      <trkpt lat="44.10523" lon="6.33922">
        <ele>1208.1</ele>
      </trkpt>
      <trkpt lat="44.10512" lon="6.33911">
        <ele>1208.6</ele>
      </trkpt>
      <trkpt lat="44.10512" lon="6.33893">
        <ele>1208.1</ele>
      </trkpt>
      <trkpt lat="44.10522" lon="6.33869">
        <ele>1206.5</ele>
      </trkpt>
      <trkpt lat="44.10522" lon="6.33853">
        <ele>1207.4</ele>
      </trkpt>
      <trkpt lat="44.10479" lon="6.33795">
        <ele>1218.2</ele>
      </trkpt>
      <trkpt lat="44.10474" lon="6.33796">
        <ele>1219.8</ele>
      </trkpt>
      <trkpt lat="44.1047" lon="6.33808">
        <ele>1223.1</ele>
      </trkpt>
      <trkpt lat="44.10476" lon="6.33838">
        <ele>1223.6</ele>
      </trkpt>
      <trkpt lat="44.10464" lon="6.33862">
        <ele>1228.8</ele>
      </trkpt>
      <trkpt lat="44.10456" lon="6.33886">
        <ele>1229.9</ele>
      </trkpt>
      <trkpt lat="44.10446" lon="6.33891">
        <ele>1233.6</ele>
      </trkpt>
      <trkpt lat="44.10432" lon="6.33838">
        <ele>1242.1</ele>
      </trkpt>
      <trkpt lat="44.10418" lon="6.3382">
        <ele>1245.1</ele>
      </trkpt>
      <trkpt lat="44.10418" lon="6.33819">
        <ele>1244.9</ele>
        <extensions>
          <visugpx:TrkExtension xmlns:visugpx="https://www.visugpx.com/editgpx/">
            <visugpx:node>13</visugpx:node>
            </visugpx:TrkExtension>
        </extensions>
      </trkpt>
      <trkpt lat="44.10397" lon="6.33798">
        <ele>1247</ele>
      </trkpt>
      <trkpt lat="44.10392" lon="6.33784">
        <ele>1245.4</ele>
      </trkpt>
      <trkpt lat="44.10376" lon="6.33757">
        <ele>1244.5</ele>
      </trkpt>
      <trkpt lat="44.10358" lon="6.33742">
        <ele>1248.5</ele>
      </trkpt>
      <trkpt lat="44.10356" lon="6.33726">
        <ele>1248.1</ele>
      </trkpt>
      <trkpt lat="44.10352" lon="6.33715">
        <ele>1249.9</ele>
      </trkpt>
      <trkpt lat="44.10344" lon="6.33707">
        <ele>1253.1</ele>
      </trkpt>
      <trkpt lat="44.10336" lon="6.33695">
        <ele>1256.2</ele>
      </trkpt>
      <trkpt lat="44.1032" lon="6.33667">
        <ele>1261.3</ele>
      </trkpt>
      <trkpt lat="44.10305" lon="6.33645">
        <ele>1266.2</ele>
      </trkpt>
      <trkpt lat="44.10306" lon="6.33633">
        <ele>1265.5</ele>
      </trkpt>
      <trkpt lat="44.10312" lon="6.33617">
        <ele>1263.7</ele>
      </trkpt>
      <trkpt lat="44.10304" lon="6.336">
        <ele>1267.5</ele>
      </trkpt>
      <trkpt lat="44.1031" lon="6.33587">
        <ele>1269.6</ele>
      </trkpt>
      <trkpt lat="44.10311" lon="6.33574">
        <ele>1273.4</ele>
      </trkpt>
      <trkpt lat="44.10319" lon="6.33567">
        <ele>1274.6</ele>
      </trkpt>
      <trkpt lat="44.10329" lon="6.33562">
        <ele>1274.7</ele>
      </trkpt>
      <trkpt lat="44.10346" lon="6.33561">
        <ele>1270.9</ele>
      </trkpt>
      <trkpt lat="44.10346" lon="6.33555">
        <ele>1272.5</ele>
      </trkpt>
      <trkpt lat="44.10344" lon="6.33549">
        <ele>1275.1</ele>
      </trkpt>
      <trkpt lat="44.10339" lon="6.33543">
        <ele>1278.7</ele>
      </trkpt>
      <trkpt lat="44.10324" lon="6.33539">
        <ele>1282.9</ele>
      </trkpt>
      <trkpt lat="44.10309" lon="6.33541">
        <ele>1283.8</ele>
      </trkpt>
      <trkpt lat="44.10288" lon="6.33506">
        <ele>1288.7</ele>
      </trkpt>
      <trkpt lat="44.103" lon="6.33452">
        <ele>1282.6</ele>
      </trkpt>
      <trkpt lat="44.10312" lon="6.33432">
        <ele>1279.6</ele>
      </trkpt>
      <trkpt lat="44.10341" lon="6.33427">
        <ele>1278.6</ele>
      </trkpt>
      <trkpt lat="44.10344" lon="6.334">
        <ele>1273.3</ele>
      </trkpt>
      <trkpt lat="44.10331" lon="6.33373">
        <ele>1267.9</ele>
      </trkpt>
      <trkpt lat="44.1031" lon="6.33353">
        <ele>1262.4</ele>
      </trkpt>
      <trkpt lat="44.10307" lon="6.33346">
        <ele>1260.8</ele>
      </trkpt>
      <trkpt lat="44.10308" lon="6.33333">
        <ele>1258</ele>
      </trkpt>
      <trkpt lat="44.10364" lon="6.33311">
        <ele>1256</ele>
      </trkpt>
      <trkpt lat="44.10403" lon="6.333">
        <ele>1254.6</ele>
      </trkpt>
      <trkpt lat="44.10422" lon="6.33282">
        <ele>1251.4</ele>
      </trkpt>
      <trkpt lat="44.10459" lon="6.33279">
        <ele>1250.1</ele>
      </trkpt>
      <trkpt lat="44.10477" lon="6.33256">
        <ele>1246.1</ele>
      </trkpt>
      <trkpt lat="44.10488" lon="6.33239">
        <ele>1244.3</ele>
      </trkpt>
      <trkpt lat="44.10492" lon="6.33225">
        <ele>1243.1</ele>
      </trkpt>
      <trkpt lat="44.1049" lon="6.33176">
        <ele>1238</ele>
      </trkpt>
      <trkpt lat="44.10494" lon="6.33151">
        <ele>1235.7</ele>
      </trkpt>
      <trkpt lat="44.10506" lon="6.33053">
        <ele>1229.7</ele>
      </trkpt>
      <trkpt lat="44.10515" lon="6.32993">
        <ele>1226.2</ele>
      </trkpt>
      <trkpt lat="44.10528" lon="6.32968">
        <ele>1226.7</ele>
      </trkpt>
      <trkpt lat="44.10537" lon="6.32958">
        <ele>1227.3</ele>
      </trkpt>
      <trkpt lat="44.10575" lon="6.32919">
        <ele>1227.7</ele>
      </trkpt>
      <trkpt lat="44.10625" lon="6.32874">
        <ele>1221.2</ele>
      </trkpt>
      <trkpt lat="44.10641" lon="6.32852">
        <ele>1216.4</ele>
      </trkpt>
      <trkpt lat="44.10652" lon="6.32829">
        <ele>1210.6</ele>
      </trkpt>
      <trkpt lat="44.10659" lon="6.32804">
        <ele>1207.2</ele>
      </trkpt>
      <trkpt lat="44.10656" lon="6.32794">
        <ele>1207.6</ele>
      </trkpt>
      <trkpt lat="44.10666" lon="6.32754">
        <ele>1204.2</ele>
      </trkpt>
      <trkpt lat="44.10676" lon="6.32745">
        <ele>1202.3</ele>
      </trkpt>
      <trkpt lat="44.10677" lon="6.32733">
        <ele>1201.3</ele>
      </trkpt>
      <trkpt lat="44.10686" lon="6.32727">
        <ele>1199.6</ele>
      </trkpt>
      <trkpt lat="44.1069" lon="6.32714">
        <ele>1198</ele>
      </trkpt>
      <trkpt lat="44.10714" lon="6.327">
        <ele>1193.4</ele>
      </trkpt>
      <trkpt lat="44.10725" lon="6.32687">
        <ele>1191</ele>
      </trkpt>
      <trkpt lat="44.10775" lon="6.3261">
        <ele>1177.4</ele>
      </trkpt>
      <trkpt lat="44.108" lon="6.3256">
        <ele>1167.9</ele>
      </trkpt>
      <trkpt lat="44.10794" lon="6.32533">
        <ele>1166.8</ele>
      </trkpt>
      <trkpt lat="44.10806" lon="6.32502">
        <ele>1164.1</ele>
      </trkpt>
      <trkpt lat="44.10838" lon="6.32476">
        <ele>1156.8</ele>
      </trkpt>
      <trkpt lat="44.1085" lon="6.32456">
        <ele>1153.1</ele>
      </trkpt>
      <trkpt lat="44.10864" lon="6.32439">
        <ele>1150.1</ele>
      </trkpt>
      <trkpt lat="44.10873" lon="6.32436">
        <ele>1148.1</ele>
      </trkpt>
      <trkpt lat="44.10881" lon="6.3244">
        <ele>1147</ele>
      </trkpt>
      <trkpt lat="44.10897" lon="6.32419">
        <ele>1141.7</ele>
      </trkpt>
      <trkpt lat="44.10918" lon="6.32415">
        <ele>1137.3</ele>
      </trkpt>
      <trkpt lat="44.10933" lon="6.32403">
        <ele>1131.4</ele>
      </trkpt>
      <trkpt lat="44.10948" lon="6.32406">
        <ele>1127.5</ele>
      </trkpt>
      <trkpt lat="44.10978" lon="6.32405">
        <ele>1116.7</ele>
      </trkpt>
      <trkpt lat="44.10991" lon="6.32395">
        <ele>1112.8</ele>
      </trkpt>
      <trkpt lat="44.10995" lon="6.32388">
        <ele>1113</ele>
      </trkpt>
      <trkpt lat="44.10998" lon="6.32376">
        <ele>1112.1</ele>
      </trkpt>
      <trkpt lat="44.10997" lon="6.32362">
        <ele>1112.6</ele>
      </trkpt>
      <trkpt lat="44.11002" lon="6.32348">
        <ele>1109.6</ele>
      </trkpt>
      <trkpt lat="44.11011" lon="6.32335">
        <ele>1105.8</ele>
      </trkpt>
      <trkpt lat="44.11027" lon="6.3233">
        <ele>1101.6</ele>
      </trkpt>
      <trkpt lat="44.11035" lon="6.32334">
        <ele>1099.8</ele>
      </trkpt>
      <trkpt lat="44.11046" lon="6.32326">
        <ele>1094.9</ele>
      </trkpt>
      <trkpt lat="44.11054" lon="6.32326">
        <ele>1092.4</ele>
      </trkpt>
      <trkpt lat="44.11061" lon="6.32321">
        <ele>1090.1</ele>
      </trkpt>
      <trkpt lat="44.11092" lon="6.32323">
        <ele>1084.3</ele>
      </trkpt>
      <trkpt lat="44.11105" lon="6.32321">
        <ele>1081.9</ele>
        <extensions>
          <visugpx:TrkExtension xmlns:visugpx="https://www.visugpx.com/editgpx/">
            <visugpx:node>14</visugpx:node>
            </visugpx:TrkExtension>
        </extensions>
      </trkpt>
      <trkpt lat="44.11113" lon="6.32314">
        <ele>1081.1</ele>
      </trkpt>
      <trkpt lat="44.11128" lon="6.32304">
        <ele>1079.6</ele>
      </trkpt>
      <trkpt lat="44.11143" lon="6.32315">
        <ele>1076</ele>
      </trkpt>
      <trkpt lat="44.11148" lon="6.32326">
        <ele>1074.2</ele>
      </trkpt>
      <trkpt lat="44.11158" lon="6.32362">
        <ele>1072.3</ele>
      </trkpt>
      <trkpt lat="44.11161" lon="6.32365">
        <ele>1072.1</ele>
      </trkpt>
      <trkpt lat="44.11165" lon="6.32367">
        <ele>1072</ele>
      </trkpt>
      <trkpt lat="44.11174" lon="6.32368">
        <ele>1072.9</ele>
      </trkpt>
      <trkpt lat="44.11207" lon="6.32376">
        <ele>1077</ele>
      </trkpt>
      <trkpt lat="44.11235" lon="6.32376">
        <ele>1077.3</ele>
      </trkpt>
      <trkpt lat="44.11261" lon="6.32362">
        <ele>1077.5</ele>
      </trkpt>
      <trkpt lat="44.11266" lon="6.32363">
        <ele>1077.1</ele>
      </trkpt>
      <trkpt lat="44.11307" lon="6.32349">
        <ele>1076.2</ele>
      </trkpt>
      <trkpt lat="44.11327" lon="6.3233">
        <ele>1077.3</ele>
      </trkpt>
      <trkpt lat="44.11342" lon="6.32321">
        <ele>1078.4</ele>
      </trkpt>
      <trkpt lat="44.11346" lon="6.32309">
        <ele>1080.7</ele>
      </trkpt>
      <trkpt lat="44.11375" lon="6.32309">
        <ele>1081.6</ele>
      </trkpt>
      <trkpt lat="44.11379" lon="6.32303">
        <ele>1082.4</ele>
      </trkpt>
      <trkpt lat="44.11377" lon="6.32296">
        <ele>1082.5</ele>
      </trkpt>
      <trkpt lat="44.1139" lon="6.3229">
        <ele>1082.8</ele>
      </trkpt>
      <trkpt lat="44.11401" lon="6.32301">
        <ele>1078.8</ele>
      </trkpt>
      <trkpt lat="44.11401" lon="6.32321">
        <ele>1074.9</ele>
      </trkpt>
      <trkpt lat="44.11397" lon="6.3234">
        <ele>1071.2</ele>
      </trkpt>
      <trkpt lat="44.11393" lon="6.32345">
        <ele>1071</ele>
      </trkpt>
      <trkpt lat="44.11392" lon="6.32359">
        <ele>1067.6</ele>
      </trkpt>
      <trkpt lat="44.11396" lon="6.32374">
        <ele>1063.1</ele>
      </trkpt>
      <trkpt lat="44.11401" lon="6.32382">
        <ele>1060.8</ele>
      </trkpt>
      <trkpt lat="44.11419" lon="6.3239">
        <ele>1058.2</ele>
      </trkpt>
      <trkpt lat="44.11434" lon="6.32412">
        <ele>1055.1</ele>
      </trkpt>
      <trkpt lat="44.1145" lon="6.32427">
        <ele>1053.3</ele>
      </trkpt>
      <trkpt lat="44.1146" lon="6.32433">
        <ele>1051.8</ele>
      </trkpt>
      <trkpt lat="44.11478" lon="6.32439">
        <ele>1049.8</ele>
      </trkpt>
      <trkpt lat="44.11483" lon="6.32452">
        <ele>1046.5</ele>
      </trkpt>
      <trkpt lat="44.1149" lon="6.32449">
        <ele>1045.8</ele>
      </trkpt>
      <trkpt lat="44.11497" lon="6.32451">
        <ele>1043.7</ele>
      </trkpt>
      <trkpt lat="44.11502" lon="6.3245">
        <ele>1042.3</ele>
      </trkpt>
      <trkpt lat="44.11506" lon="6.32459">
        <ele>1038.9</ele>
      </trkpt>
      <trkpt lat="44.11509" lon="6.32463">
        <ele>1036.6</ele>
      </trkpt>
      <trkpt lat="44.11511" lon="6.32463">
        <ele>1035.5</ele>
      </trkpt>
      <trkpt lat="44.11545" lon="6.32439">
        <ele>1027</ele>
      </trkpt>
      <trkpt lat="44.11556" lon="6.32437">
        <ele>1024.1</ele>
      </trkpt>
      <trkpt lat="44.11571" lon="6.32421">
        <ele>1022.2</ele>
      </trkpt>
      <trkpt lat="44.11577" lon="6.32407">
        <ele>1021.7</ele>
      </trkpt>
      <trkpt lat="44.11586" lon="6.32398">
        <ele>1020.6</ele>
      </trkpt>
      <trkpt lat="44.1159" lon="6.32399">
        <ele>1020.1</ele>
      </trkpt>
      <trkpt lat="44.11597" lon="6.32417">
        <ele>1019.4</ele>
      </trkpt>
      <trkpt lat="44.11608" lon="6.32423">
        <ele>1016.8</ele>
      </trkpt>
      <trkpt lat="44.11638" lon="6.32422">
        <ele>1014.3</ele>
      </trkpt>
      <trkpt lat="44.11652" lon="6.32427">
        <ele>1012.4</ele>
      </trkpt>
      <trkpt lat="44.11656" lon="6.32421">
        <ele>1013.7</ele>
      </trkpt>
      <trkpt lat="44.11661" lon="6.32406">
        <ele>1013.7</ele>
      </trkpt>
      <trkpt lat="44.11659" lon="6.32387">
        <ele>1012.8</ele>
      </trkpt>
      <trkpt lat="44.11661" lon="6.32362">
        <ele>1012.6</ele>
      </trkpt>
      <trkpt lat="44.11666" lon="6.3236">
        <ele>1012</ele>
      </trkpt>
      <trkpt lat="44.11678" lon="6.3236">
        <ele>1010.8</ele>
      </trkpt>
      <trkpt lat="44.11705" lon="6.32337">
        <ele>1008.5</ele>
      </trkpt>
      <trkpt lat="44.11749" lon="6.32324">
        <ele>1006</ele>
      </trkpt>
      <trkpt lat="44.11773" lon="6.32326">
        <ele>1002.5</ele>
      </trkpt>
      <trkpt lat="44.11787" lon="6.32319">
        <ele>999.1</ele>
      </trkpt>
      <trkpt lat="44.11775" lon="6.32304">
        <ele>1003.9</ele>
      </trkpt>
      <trkpt lat="44.11769" lon="6.32306">
        <ele>1004.6</ele>
      </trkpt>
      <trkpt lat="44.11765" lon="6.32303">
        <ele>1004.5</ele>
      </trkpt>
      <trkpt lat="44.11755" lon="6.323">
        <ele>1004.8</ele>
      </trkpt>
      <trkpt lat="44.11756" lon="6.32295">
        <ele>1004</ele>
      </trkpt>
      <trkpt lat="44.11771" lon="6.3228">
        <ele>1000.1</ele>
      </trkpt>
      <trkpt lat="44.11812" lon="6.32292">
        <ele>995.7</ele>
      </trkpt>
      <trkpt lat="44.11821" lon="6.32285">
        <ele>994.7</ele>
      </trkpt>
      <trkpt lat="44.11826" lon="6.32269">
        <ele>995.9</ele>
      </trkpt>
      <trkpt lat="44.11846" lon="6.32233">
        <ele>995.6</ele>
      </trkpt>
      <trkpt lat="44.11872" lon="6.32214">
        <ele>995.5</ele>
      </trkpt>
      <trkpt lat="44.11882" lon="6.32211">
        <ele>994.5</ele>
      </trkpt>
      <trkpt lat="44.11891" lon="6.32202">
        <ele>996.2</ele>
      </trkpt>
      <trkpt lat="44.11887" lon="6.32187">
        <ele>999.7</ele>
      </trkpt>
      <trkpt lat="44.11874" lon="6.32169">
        <ele>1000</ele>
      </trkpt>
      <trkpt lat="44.11869" lon="6.32146">
        <ele>1001.1</ele>
      </trkpt>
      <trkpt lat="44.11872" lon="6.32138">
        <ele>1000.5</ele>
      </trkpt>
      <trkpt lat="44.11877" lon="6.32133">
        <ele>998.5</ele>
      </trkpt>
      <trkpt lat="44.1189" lon="6.3214">
        <ele>996.7</ele>
      </trkpt>
      <trkpt lat="44.11913" lon="6.32133">
        <ele>987.3</ele>
      </trkpt>
      <trkpt lat="44.11913" lon="6.32126">
        <ele>986.2</ele>
      </trkpt>
      <trkpt lat="44.1193" lon="6.3211">
        <ele>980.8</ele>
      </trkpt>
      <trkpt lat="44.11945" lon="6.32113">
        <ele>978.8</ele>
      </trkpt>
      <trkpt lat="44.11955" lon="6.32088">
        <ele>972</ele>
      </trkpt>
      <trkpt lat="44.11958" lon="6.32085">
        <ele>971.3</ele>
      </trkpt>
      <trkpt lat="44.11984" lon="6.32107">
        <ele>970.9</ele>
      </trkpt>
      <trkpt lat="44.12" lon="6.3211">
        <ele>971</ele>
      </trkpt>
      <trkpt lat="44.12007" lon="6.32109">
        <ele>970.8</ele>
      </trkpt>
      <trkpt lat="44.12022" lon="6.32116">
        <ele>969.2</ele>
      </trkpt>
      <trkpt lat="44.12035" lon="6.32143">
        <ele>961.5</ele>
      </trkpt>
      <trkpt lat="44.12045" lon="6.32148">
        <ele>958.9</ele>
      </trkpt>
      <trkpt lat="44.12054" lon="6.32149">
        <ele>957.9</ele>
      </trkpt>
      <trkpt lat="44.12069" lon="6.32172">
        <ele>952.9</ele>
      </trkpt>
      <trkpt lat="44.12079" lon="6.32175">
        <ele>952.9</ele>
      </trkpt>
      <trkpt lat="44.12087" lon="6.32173">
        <ele>953.2</ele>
      </trkpt>
      <trkpt lat="44.1212" lon="6.32187">
        <ele>951.5</ele>
      </trkpt>
      <trkpt lat="44.12136" lon="6.32184">
        <ele>951.8</ele>
      </trkpt>
      <trkpt lat="44.1215" lon="6.3217">
        <ele>953.9</ele>
      </trkpt>
      <trkpt lat="44.12162" lon="6.32163">
        <ele>955.5</ele>
      </trkpt>
      <trkpt lat="44.1216" lon="6.32155">
        <ele>955.3</ele>
      </trkpt>
      <trkpt lat="44.12141" lon="6.32112">
        <ele>952.2</ele>
      </trkpt>
      <trkpt lat="44.12102" lon="6.3205">
        <ele>949.4</ele>
      </trkpt>
      <trkpt lat="44.12086" lon="6.31989">
        <ele>948.1</ele>
      </trkpt>
      <trkpt lat="44.12073" lon="6.31949">
        <ele>950</ele>
      </trkpt>
      <trkpt lat="44.12069" lon="6.31942">
        <ele>949.8</ele>
      </trkpt>
      <trkpt lat="44.12061" lon="6.31935">
        <ele>949.8</ele>
      </trkpt>
      <trkpt lat="44.12054" lon="6.31931">
        <ele>949.4</ele>
      </trkpt>
      <trkpt lat="44.12034" lon="6.31926">
        <ele>946.9</ele>
      </trkpt>
      <trkpt lat="44.1203" lon="6.31924">
        <ele>946.2</ele>
      </trkpt>
      <trkpt lat="44.12023" lon="6.31905">
        <ele>945.4</ele>
      </trkpt>
      <trkpt lat="44.12011" lon="6.3189">
        <ele>946.5</ele>
      </trkpt>
      <trkpt lat="44.12005" lon="6.31873">
        <ele>946</ele>
      </trkpt>
      <trkpt lat="44.11993" lon="6.31863">
        <ele>946.9</ele>
      </trkpt>
      <trkpt lat="44.11981" lon="6.31838">
        <ele>947.6</ele>
      </trkpt>
      <trkpt lat="44.11977" lon="6.31819">
        <ele>949.6</ele>
      </trkpt>
      <trkpt lat="44.11972" lon="6.31773">
        <ele>951.5</ele>
      </trkpt>
      <trkpt lat="44.11954" lon="6.31762">
        <ele>950.8</ele>
      </trkpt>
      <trkpt lat="44.11917" lon="6.31751">
        <ele>943.3</ele>
      </trkpt>
      <trkpt lat="44.11893" lon="6.3174">
        <ele>942.7</ele>
      </trkpt>
      <trkpt lat="44.11889" lon="6.31722">
        <ele>939</ele>
      </trkpt>
      <trkpt lat="44.11889" lon="6.31684">
        <ele>941.7</ele>
        <extensions>
          <visugpx:TrkExtension xmlns:visugpx="https://www.visugpx.com/editgpx/">
            <visugpx:node>15</visugpx:node>
            </visugpx:TrkExtension>
        </extensions>
      </trkpt>
      <trkpt lat="44.11889" lon="6.31676">
        <ele>942.3</ele>
      </trkpt>
      <trkpt lat="44.11884" lon="6.31669">
        <ele>944.2</ele>
      </trkpt>
      <trkpt lat="44.11867" lon="6.31654">
        <ele>951</ele>
      </trkpt>
      <trkpt lat="44.11866" lon="6.3165">
        <ele>951.9</ele>
      </trkpt>
      <trkpt lat="44.11868" lon="6.31631">
        <ele>954.7</ele>
      </trkpt>
      <trkpt lat="44.11876" lon="6.31606">
        <ele>955.2</ele>
      </trkpt>
      <trkpt lat="44.11874" lon="6.31597">
        <ele>955.8</ele>
      </trkpt>
      <trkpt lat="44.11864" lon="6.3158">
        <ele>959.6</ele>
      </trkpt>
      <trkpt lat="44.11833" lon="6.31567">
        <ele>962.1</ele>
      </trkpt>
      <trkpt lat="44.11819" lon="6.31564">
        <ele>962.4</ele>
      </trkpt>
      <trkpt lat="44.11808" lon="6.31553">
        <ele>961.7</ele>
      </trkpt>
      <trkpt lat="44.11813" lon="6.31508">
        <ele>958.6</ele>
      </trkpt>
      <trkpt lat="44.11812" lon="6.31488">
        <ele>957.8</ele>
      </trkpt>
      <trkpt lat="44.11788" lon="6.31469">
        <ele>959.3</ele>
      </trkpt>
      <trkpt lat="44.11768" lon="6.31445">
        <ele>957.8</ele>
      </trkpt>
      <trkpt lat="44.11766" lon="6.31416">
        <ele>954.1</ele>
      </trkpt>
      <trkpt lat="44.1176" lon="6.31392">
        <ele>953.5</ele>
      </trkpt>
      <trkpt lat="44.11755" lon="6.31387">
        <ele>953.6</ele>
      </trkpt>
      <trkpt lat="44.11748" lon="6.31362">
        <ele>953</ele>
      </trkpt>
      <trkpt lat="44.11751" lon="6.31359">
        <ele>952.8</ele>
      </trkpt>
      <trkpt lat="44.11755" lon="6.31353">
        <ele>952.3</ele>
      </trkpt>
      <trkpt lat="44.11766" lon="6.31331">
        <ele>951.7</ele>
      </trkpt>
      <trkpt lat="44.11769" lon="6.31311">
        <ele>952.8</ele>
      </trkpt>
      <trkpt lat="44.11774" lon="6.31272">
        <ele>954.7</ele>
      </trkpt>
      <trkpt lat="44.11781" lon="6.31261">
        <ele>955.6</ele>
      </trkpt>
      <trkpt lat="44.11797" lon="6.31248">
        <ele>956.2</ele>
      </trkpt>
      <trkpt lat="44.11809" lon="6.3125">
        <ele>956.4</ele>
      </trkpt>
      <trkpt lat="44.11825" lon="6.3126">
        <ele>957.3</ele>
      </trkpt>
      <trkpt lat="44.11809" lon="6.31202">
        <ele>963.3</ele>
      </trkpt>
      <trkpt lat="44.11811" lon="6.31156">
        <ele>969.9</ele>
      </trkpt>
      <trkpt lat="44.11817" lon="6.31156">
        <ele>970.6</ele>
      </trkpt>
      <trkpt lat="44.11822" lon="6.31188">
        <ele>967.8</ele>
      </trkpt>
      <trkpt lat="44.1184" lon="6.31208">
        <ele>967.8</ele>
      </trkpt>
      <trkpt lat="44.11864" lon="6.3123">
        <ele>968.1</ele>
      </trkpt>
      <trkpt lat="44.11897" lon="6.31244">
        <ele>971.2</ele>
      </trkpt>
      <trkpt lat="44.11922" lon="6.31248">
        <ele>974.3</ele>
      </trkpt>
      <trkpt lat="44.11946" lon="6.31268">
        <ele>975.7</ele>
      </trkpt>
      <trkpt lat="44.11965" lon="6.31278">
        <ele>976.9</ele>
      </trkpt>
      <trkpt lat="44.12027" lon="6.31297">
        <ele>982.1</ele>
      </trkpt>
      <trkpt lat="44.12021" lon="6.3128">
        <ele>985.3</ele>
      </trkpt>
      <trkpt lat="44.12038" lon="6.31278">
        <ele>988.8</ele>
      </trkpt>
      <trkpt lat="44.12014" lon="6.31235">
        <ele>992.7</ele>
      </trkpt>
      <trkpt lat="44.12021" lon="6.3123">
        <ele>994.6</ele>
      </trkpt>
      <trkpt lat="44.12048" lon="6.3125">
        <ele>995.6</ele>
      </trkpt>
      <trkpt lat="44.1205" lon="6.31242">
        <ele>997.4</ele>
      </trkpt>
      <trkpt lat="44.12048" lon="6.31223">
        <ele>1000.5</ele>
      </trkpt>
      <trkpt lat="44.12041" lon="6.31196">
        <ele>1003.2</ele>
      </trkpt>
      <trkpt lat="44.11979" lon="6.31139">
        <ele>1003</ele>
      </trkpt>
      <trkpt lat="44.11976" lon="6.31119">
        <ele>1005.5</ele>
      </trkpt>
      <trkpt lat="44.11947" lon="6.31092">
        <ele>1005.2</ele>
      </trkpt>
      <trkpt lat="44.11926" lon="6.31061">
        <ele>1006</ele>
      </trkpt>
      <trkpt lat="44.11963" lon="6.31066">
        <ele>1011.8</ele>
      </trkpt>
      <trkpt lat="44.1199" lon="6.31087">
        <ele>1013</ele>
      </trkpt>
      <trkpt lat="44.12004" lon="6.31092">
        <ele>1014.3</ele>
      </trkpt>
      <trkpt lat="44.12027" lon="6.31092">
        <ele>1017.6</ele>
      </trkpt>
      <trkpt lat="44.12019" lon="6.31072">
        <ele>1019.1</ele>
      </trkpt>
      <trkpt lat="44.12012" lon="6.31059">
        <ele>1019.9</ele>
      </trkpt>
      <trkpt lat="44.12031" lon="6.31053">
        <ele>1021.3</ele>
      </trkpt>
      <trkpt lat="44.12026" lon="6.31036">
        <ele>1023.3</ele>
      </trkpt>
      <trkpt lat="44.12009" lon="6.3102">
        <ele>1024</ele>
      </trkpt>
      <trkpt lat="44.11995" lon="6.30981">
        <ele>1029</ele>
      </trkpt>
      <trkpt lat="44.11988" lon="6.30929">
        <ele>1033.7</ele>
      </trkpt>
      <trkpt lat="44.11972" lon="6.30885">
        <ele>1038.4</ele>
      </trkpt>
      <trkpt lat="44.11957" lon="6.3085">
        <ele>1040.2</ele>
      </trkpt>
      <trkpt lat="44.11927" lon="6.30816">
        <ele>1041.4</ele>
      </trkpt>
      <trkpt lat="44.11911" lon="6.30791">
        <ele>1043.2</ele>
      </trkpt>
      <trkpt lat="44.11893" lon="6.30773">
        <ele>1043</ele>
      </trkpt>
      <trkpt lat="44.11883" lon="6.30754">
        <ele>1042.2</ele>
      </trkpt>
      <trkpt lat="44.11874" lon="6.30727">
        <ele>1044</ele>
      </trkpt>
      <trkpt lat="44.11895" lon="6.30738">
        <ele>1047</ele>
      </trkpt>
      <trkpt lat="44.11906" lon="6.30756">
        <ele>1047</ele>
      </trkpt>
      <trkpt lat="44.11922" lon="6.30773">
        <ele>1047.5</ele>
      </trkpt>
      <trkpt lat="44.11941" lon="6.30785">
        <ele>1048.2</ele>
      </trkpt>
      <trkpt lat="44.11959" lon="6.30787">
        <ele>1049.6</ele>
      </trkpt>
      <trkpt lat="44.11969" lon="6.30782">
        <ele>1051.1</ele>
      </trkpt>
      <trkpt lat="44.11979" lon="6.3077">
        <ele>1051.1</ele>
      </trkpt>
      <trkpt lat="44.11975" lon="6.30747">
        <ele>1054.6</ele>
      </trkpt>
      <trkpt lat="44.11975" lon="6.30723">
        <ele>1057.2</ele>
      </trkpt>
      <trkpt lat="44.11954" lon="6.30691">
        <ele>1062.2</ele>
      </trkpt>
      <trkpt lat="44.11928" lon="6.30666">
        <ele>1063.7</ele>
      </trkpt>
      <trkpt lat="44.11922" lon="6.30644">
        <ele>1066</ele>
      </trkpt>
      <trkpt lat="44.11938" lon="6.30657">
        <ele>1066.5</ele>
      </trkpt>
      <trkpt lat="44.11956" lon="6.30664">
        <ele>1066</ele>
      </trkpt>
      <trkpt lat="44.1196" lon="6.30636">
        <ele>1070.4</ele>
      </trkpt>
      <trkpt lat="44.11974" lon="6.30617">
        <ele>1072.9</ele>
      </trkpt>
      <trkpt lat="44.1196" lon="6.30597">
        <ele>1076</ele>
      </trkpt>
      <trkpt lat="44.1195" lon="6.30574">
        <ele>1079.1</ele>
      </trkpt>
      <trkpt lat="44.11934" lon="6.30498">
        <ele>1085.3</ele>
      </trkpt>
      <trkpt lat="44.11918" lon="6.30472">
        <ele>1085.2</ele>
        <extensions>
          <visugpx:TrkExtension xmlns:visugpx="https://www.visugpx.com/editgpx/">
            <visugpx:node>16</visugpx:node>
            </visugpx:TrkExtension>
        </extensions>
      </trkpt>
      <trkpt lat="44.11916" lon="6.3047">
        <ele>1085</ele>
      </trkpt>
      <trkpt lat="44.11907" lon="6.30453">
        <ele>1084.5</ele>
      </trkpt>
      <trkpt lat="44.11922" lon="6.30459">
        <ele>1086.3</ele>
      </trkpt>
      <trkpt lat="44.11935" lon="6.30457">
        <ele>1088.1</ele>
      </trkpt>
      <trkpt lat="44.11965" lon="6.30464">
        <ele>1091.4</ele>
      </trkpt>
      <trkpt lat="44.11981" lon="6.30454">
        <ele>1092.3</ele>
      </trkpt>
      <trkpt lat="44.12002" lon="6.30432">
        <ele>1095</ele>
      </trkpt>
      <trkpt lat="44.12" lon="6.30422">
        <ele>1095.6</ele>
      </trkpt>
      <trkpt lat="44.12005" lon="6.3041">
        <ele>1095.8</ele>
      </trkpt>
      <trkpt lat="44.12002" lon="6.30407">
        <ele>1095.2</ele>
      </trkpt>
      <trkpt lat="44.11999" lon="6.30377">
        <ele>1091.4</ele>
      </trkpt>
      <trkpt lat="44.11996" lon="6.30372">
        <ele>1089.8</ele>
      </trkpt>
      <trkpt lat="44.11995" lon="6.3036">
        <ele>1088</ele>
      </trkpt>
      <trkpt lat="44.12009" lon="6.30307">
        <ele>1079</ele>
      </trkpt>
      <trkpt lat="44.11998" lon="6.30264">
        <ele>1076.5</ele>
      </trkpt>
      <trkpt lat="44.12" lon="6.30238">
        <ele>1076.6</ele>
      </trkpt>
      <trkpt lat="44.11993" lon="6.30206">
        <ele>1076.3</ele>
      </trkpt>
      <trkpt lat="44.11977" lon="6.30164">
        <ele>1075.4</ele>
      </trkpt>
      <trkpt lat="44.1198" lon="6.30141">
        <ele>1077.5</ele>
      </trkpt>
      <trkpt lat="44.1198" lon="6.30094">
        <ele>1079.9</ele>
      </trkpt>
      <trkpt lat="44.11936" lon="6.29999">
        <ele>1080.1</ele>
      </trkpt>
      <trkpt lat="44.11945" lon="6.29966">
        <ele>1079.8</ele>
      </trkpt>
      <trkpt lat="44.11957" lon="6.29939">
        <ele>1077.6</ele>
      </trkpt>
      <trkpt lat="44.11974" lon="6.29884">
        <ele>1069.5</ele>
      </trkpt>
      <trkpt lat="44.11985" lon="6.29862">
        <ele>1067.5</ele>
      </trkpt>
      <trkpt lat="44.11985" lon="6.29843">
        <ele>1065</ele>
      </trkpt>
      <trkpt lat="44.11991" lon="6.29818">
        <ele>1063</ele>
      </trkpt>
      <trkpt lat="44.11982" lon="6.29778">
        <ele>1060.4</ele>
      </trkpt>
      <trkpt lat="44.11977" lon="6.29742">
        <ele>1058.7</ele>
      </trkpt>
      <trkpt lat="44.11972" lon="6.29726">
        <ele>1058.1</ele>
      </trkpt>
      <trkpt lat="44.11959" lon="6.29659">
        <ele>1054.4</ele>
      </trkpt>
      <trkpt lat="44.11968" lon="6.29648">
        <ele>1052.9</ele>
      </trkpt>
      <trkpt lat="44.11965" lon="6.29609">
        <ele>1045.9</ele>
      </trkpt>
      <trkpt lat="44.11935" lon="6.29538">
        <ele>1029.4</ele>
      </trkpt>
      <trkpt lat="44.11931" lon="6.29512">
        <ele>1025.3</ele>
      </trkpt>
      <trkpt lat="44.11931" lon="6.29496">
        <ele>1022.6</ele>
      </trkpt>
      <trkpt lat="44.11926" lon="6.29478">
        <ele>1019.1</ele>
      </trkpt>
      <trkpt lat="44.11923" lon="6.29472">
        <ele>1018.3</ele>
      </trkpt>
      <trkpt lat="44.11925" lon="6.29466">
        <ele>1016.4</ele>
      </trkpt>
      <trkpt lat="44.11919" lon="6.29461">
        <ele>1015.9</ele>
      </trkpt>
      <trkpt lat="44.1192" lon="6.29455">
        <ele>1014.2</ele>
      </trkpt>
      <trkpt lat="44.11922" lon="6.29455">
        <ele>1013.8</ele>
      </trkpt>
      <trkpt lat="44.11916" lon="6.29442">
        <ele>1010.8</ele>
      </trkpt>
      <trkpt lat="44.11901" lon="6.2944">
        <ele>1003.3</ele>
      </trkpt>
      <trkpt lat="44.11905" lon="6.29426">
        <ele>1000.7</ele>
      </trkpt>
      <trkpt lat="44.11924" lon="6.29416">
        <ele>1000.3</ele>
      </trkpt>
      <trkpt lat="44.11919" lon="6.29406">
        <ele>995.9</ele>
      </trkpt>
      <trkpt lat="44.1192" lon="6.29402">
        <ele>993.7</ele>
      </trkpt>
      <trkpt lat="44.11928" lon="6.29402">
        <ele>992.9</ele>
      </trkpt>
      <trkpt lat="44.11926" lon="6.29392">
        <ele>988.2</ele>
      </trkpt>
      <trkpt lat="44.11912" lon="6.29381">
        <ele>980.1</ele>
      </trkpt>
      <trkpt lat="44.11927" lon="6.29366">
        <ele>971.8</ele>
      </trkpt>
      <trkpt lat="44.11938" lon="6.29367">
        <ele>972</ele>
      </trkpt>
      <trkpt lat="44.11945" lon="6.29365">
        <ele>970.4</ele>
      </trkpt>
      <trkpt lat="44.11938" lon="6.29351">
        <ele>962.9</ele>
      </trkpt>
      <trkpt lat="44.11937" lon="6.29339">
        <ele>956.5</ele>
      </trkpt>
      <trkpt lat="44.11942" lon="6.29335">
        <ele>954.7</ele>
      </trkpt>
      <trkpt lat="44.11948" lon="6.29322">
        <ele>948</ele>
      </trkpt>
      <trkpt lat="44.11947" lon="6.29318">
        <ele>946.4</ele>
      </trkpt>
      <trkpt lat="44.11935" lon="6.29289">
        <ele>934.6</ele>
      </trkpt>
      <trkpt lat="44.11914" lon="6.29286">
        <ele>932.2</ele>
      </trkpt>
      <trkpt lat="44.11905" lon="6.29282">
        <ele>929.6</ele>
      </trkpt>
      <trkpt lat="44.119" lon="6.29267">
        <ele>924.6</ele>
      </trkpt>
      <trkpt lat="44.11891" lon="6.29255">
        <ele>920.4</ele>
      </trkpt>
      <trkpt lat="44.11845" lon="6.29239">
        <ele>908.8</ele>
      </trkpt>
      <trkpt lat="44.1183" lon="6.29217">
        <ele>904.5</ele>
      </trkpt>
      <trkpt lat="44.11806" lon="6.29194">
        <ele>899</ele>
      </trkpt>
      <trkpt lat="44.11798" lon="6.2918">
        <ele>894</ele>
      </trkpt>
      <trkpt lat="44.11788" lon="6.29173">
        <ele>890.6</ele>
      </trkpt>
      <trkpt lat="44.11714" lon="6.29084">
        <ele>867.5</ele>
      </trkpt>
      <trkpt lat="44.11696" lon="6.2906">
        <ele>864.2</ele>
      </trkpt>
      <trkpt lat="44.11684" lon="6.29059">
        <ele>862.8</ele>
      </trkpt>
      <trkpt lat="44.11676" lon="6.29058">
        <ele>861.9</ele>
      </trkpt>
      <trkpt lat="44.11667" lon="6.29016">
        <ele>859.6</ele>
      </trkpt>
      <trkpt lat="44.11643" lon="6.28987">
        <ele>858.4</ele>
      </trkpt>
      <trkpt lat="44.11619" lon="6.28939">
        <ele>858</ele>
      </trkpt>
      <trkpt lat="44.11612" lon="6.28923">
        <ele>858.7</ele>
      </trkpt>
      <trkpt lat="44.11584" lon="6.28818">
        <ele>859.1</ele>
      </trkpt>
      <trkpt lat="44.11583" lon="6.28745">
        <ele>862.1</ele>
      </trkpt>
      <trkpt lat="44.11578" lon="6.28733">
        <ele>861.8</ele>
      </trkpt>
      <trkpt lat="44.11576" lon="6.28702">
        <ele>862.9</ele>
      </trkpt>
      <trkpt lat="44.11567" lon="6.2866">
        <ele>865.2</ele>
      </trkpt>
      <trkpt lat="44.11562" lon="6.28651">
        <ele>865.5</ele>
      </trkpt>
      <trkpt lat="44.11551" lon="6.28646">
        <ele>865</ele>
      </trkpt>
      <trkpt lat="44.11529" lon="6.2862">
        <ele>862.5</ele>
      </trkpt>
      <trkpt lat="44.11515" lon="6.28618">
        <ele>861.4</ele>
      </trkpt>
      <trkpt lat="44.115" lon="6.28589">
        <ele>859.2</ele>
      </trkpt>
      <trkpt lat="44.11478" lon="6.28566">
        <ele>854.5</ele>
      </trkpt>
      <trkpt lat="44.11466" lon="6.28547">
        <ele>851.7</ele>
      </trkpt>
      <trkpt lat="44.11451" lon="6.28531">
        <ele>849.5</ele>
      </trkpt>
      <trkpt lat="44.11402" lon="6.28501">
        <ele>846.4</ele>
      </trkpt>
      <trkpt lat="44.11355" lon="6.28445">
        <ele>844.2</ele>
      </trkpt>
      <trkpt lat="44.11331" lon="6.28427">
        <ele>844.1</ele>
      </trkpt>
      <trkpt lat="44.11317" lon="6.2844">
        <ele>842.1</ele>
      </trkpt>
      <trkpt lat="44.11306" lon="6.28434">
        <ele>840.4</ele>
      </trkpt>
      <trkpt lat="44.11274" lon="6.2843">
        <ele>835</ele>
      </trkpt>
      <trkpt lat="44.11219" lon="6.28375">
        <ele>828.7</ele>
      </trkpt>
      <trkpt lat="44.1119" lon="6.28376">
        <ele>825.4</ele>
      </trkpt>
      <trkpt lat="44.1116" lon="6.28363">
        <ele>823.4</ele>
      </trkpt>
      <trkpt lat="44.11132" lon="6.28338">
        <ele>824.4</ele>
      </trkpt>
      <trkpt lat="44.11105" lon="6.28299">
        <ele>828</ele>
      </trkpt>
      <trkpt lat="44.11103" lon="6.28279">
        <ele>826.9</ele>
      </trkpt>
      <trkpt lat="44.11079" lon="6.28243">
        <ele>827.6</ele>
      </trkpt>
      <trkpt lat="44.11075" lon="6.2823">
        <ele>827.3</ele>
      </trkpt>
      <trkpt lat="44.11083" lon="6.28211">
        <ele>826.1</ele>
      </trkpt>
      <trkpt lat="44.11107" lon="6.28189">
        <ele>825.1</ele>
      </trkpt>
      <trkpt lat="44.11127" lon="6.28161">
        <ele>832.2</ele>
      </trkpt>
      <trkpt lat="44.11129" lon="6.28131">
        <ele>833.6</ele>
      </trkpt>
      <trkpt lat="44.11093" lon="6.28075">
        <ele>824.9</ele>
      </trkpt>
      <trkpt lat="44.11093" lon="6.28055">
        <ele>821.6</ele>
      </trkpt>
      <trkpt lat="44.11101" lon="6.28024">
        <ele>821.3</ele>
      </trkpt>
      <trkpt lat="44.11129" lon="6.27976">
        <ele>824.3</ele>
      </trkpt>
      <trkpt lat="44.11147" lon="6.27933">
        <ele>824.8</ele>
      </trkpt>
      <trkpt lat="44.1115" lon="6.27904">
        <ele>825.3</ele>
      </trkpt>
      <trkpt lat="44.11146" lon="6.27879">
        <ele>825.4</ele>
      </trkpt>
      <trkpt lat="44.1112" lon="6.27853">
        <ele>817.5</ele>
      </trkpt>
      <trkpt lat="44.11083" lon="6.27822">
        <ele>809.7</ele>
      </trkpt>
      <trkpt lat="44.11071" lon="6.27806">
        <ele>806.7</ele>
      </trkpt>
      <trkpt lat="44.11064" lon="6.27782">
        <ele>805.7</ele>
      </trkpt>
      <trkpt lat="44.1106" lon="6.27742">
        <ele>804.3</ele>
      </trkpt>
      <trkpt lat="44.11054" lon="6.27708">
        <ele>802.5</ele>
      </trkpt>
      <trkpt lat="44.1106" lon="6.27659">
        <ele>798.9</ele>
      </trkpt>
      <trkpt lat="44.1106" lon="6.27631">
        <ele>795.7</ele>
      </trkpt>
      <trkpt lat="44.11039" lon="6.27611">
        <ele>790</ele>
      </trkpt>
      <trkpt lat="44.11032" lon="6.27584">
        <ele>786.7</ele>
      </trkpt>
      <trkpt lat="44.11032" lon="6.27547">
        <ele>783.5</ele>
      </trkpt>
      <trkpt lat="44.11053" lon="6.27579">
        <ele>784.3</ele>
      </trkpt>
      <trkpt lat="44.11072" lon="6.2757">
        <ele>780.4</ele>
      </trkpt>
      <trkpt lat="44.11087" lon="6.2757">
        <ele>778.2</ele>
      </trkpt>
      <trkpt lat="44.11102" lon="6.27605">
        <ele>781.1</ele>
      </trkpt>
      <trkpt lat="44.11108" lon="6.2763">
        <ele>782.9</ele>
      </trkpt>
      <trkpt lat="44.11135" lon="6.27598">
        <ele>772.3</ele>
      </trkpt>
      <trkpt lat="44.11151" lon="6.2756">
        <ele>766.9</ele>
      </trkpt>
      <trkpt lat="44.11173" lon="6.27532">
        <ele>765.9</ele>
      </trkpt>
      <trkpt lat="44.11181" lon="6.27516">
        <ele>763.1</ele>
      </trkpt>
      <trkpt lat="44.11227" lon="6.27458">
        <ele>744.4</ele>
      </trkpt>
      <trkpt lat="44.11251" lon="6.27448">
        <ele>739.5</ele>
      </trkpt>
      <trkpt lat="44.1127" lon="6.27453">
        <ele>736.6</ele>
      </trkpt>
      <trkpt lat="44.11278" lon="6.27441">
        <ele>729.6</ele>
      </trkpt>
      <trkpt lat="44.1128" lon="6.27425">
        <ele>723.1</ele>
      </trkpt>
      <trkpt lat="44.1129" lon="6.27424">
        <ele>718.8</ele>
      </trkpt>
      <trkpt lat="44.11291" lon="6.27441">
        <ele>722.1</ele>
      </trkpt>
      <trkpt lat="44.11298" lon="6.27461">
        <ele>724.3</ele>
      </trkpt>
      <trkpt lat="44.11317" lon="6.2748">
        <ele>720.6</ele>
      </trkpt>
      <trkpt lat="44.11347" lon="6.27487">
        <ele>707.3</ele>
      </trkpt>
      <trkpt lat="44.1136" lon="6.27496">
        <ele>704.8</ele>
      </trkpt>
      <trkpt lat="44.11365" lon="6.27515">
        <ele>709</ele>
      </trkpt>
      <trkpt lat="44.1139" lon="6.27553">
        <ele>698.6</ele>
      </trkpt>
      <trkpt lat="44.11409" lon="6.27597">
        <ele>690.2</ele>
      </trkpt>
      <trkpt lat="44.11411" lon="6.27626">
        <ele>688.3</ele>
      </trkpt>
      <trkpt lat="44.11424" lon="6.27652">
        <ele>681.2</ele>
      </trkpt>
      <trkpt lat="44.11428" lon="6.2762">
        <ele>678.5</ele>
      </trkpt>
      <trkpt lat="44.11428" lon="6.27592">
        <ele>676.9</ele>
      </trkpt>
      <trkpt lat="44.1142" lon="6.27533">
        <ele>672.2</ele>
      </trkpt>
      <trkpt lat="44.11393" lon="6.2743">
        <ele>669.3</ele>
      </trkpt>
      <trkpt lat="44.11369" lon="6.27365">
        <ele>672.7</ele>
      </trkpt>
      <trkpt lat="44.11353" lon="6.2731">
        <ele>668.1</ele>
      </trkpt>
      <trkpt lat="44.11344" lon="6.27248">
        <ele>664.1</ele>
      </trkpt>
      <trkpt lat="44.11324" lon="6.27219">
        <ele>667</ele>
      </trkpt>
      <trkpt lat="44.11321" lon="6.2717">
        <ele>662.6</ele>
      </trkpt>
      <trkpt lat="44.11291" lon="6.2711">
        <ele>665.1</ele>
      </trkpt>
      <trkpt lat="44.11249" lon="6.27046">
        <ele>662.8</ele>
      </trkpt>
      <trkpt lat="44.11203" lon="6.26997">
        <ele>676.6</ele>
      </trkpt>
      <trkpt lat="44.11179" lon="6.2693">
        <ele>668.4</ele>
      </trkpt>
      <trkpt lat="44.11164" lon="6.26891">
        <ele>664.3</ele>
      </trkpt>
      <trkpt lat="44.11154" lon="6.26872">
        <ele>663.9</ele>
      </trkpt>
      <trkpt lat="44.11136" lon="6.26863">
        <ele>666.9</ele>
        <extensions>
          <visugpx:TrkExtension xmlns:visugpx="https://www.visugpx.com/editgpx/">
            <visugpx:node>17</visugpx:node>
            </visugpx:TrkExtension>
        </extensions>
      </trkpt>
      <trkpt lat="44.11154" lon="6.26872">
        <ele>663.9</ele>
      </trkpt>
      <trkpt lat="44.11141" lon="6.26846">
        <ele>663.4</ele>
      </trkpt>
      <trkpt lat="44.11174" lon="6.26792">
        <ele>656</ele>
      </trkpt>
      <trkpt lat="44.11172" lon="6.2678">
        <ele>656</ele>
      </trkpt>
      <trkpt lat="44.11179" lon="6.2677">
        <ele>656.1</ele>
      </trkpt>
      <trkpt lat="44.11185" lon="6.26767">
        <ele>656.3</ele>
      </trkpt>
      <trkpt lat="44.11205" lon="6.26764">
        <ele>656.5</ele>
      </trkpt>
      <trkpt lat="44.11232" lon="6.26745">
        <ele>657.6</ele>
      </trkpt>
      <trkpt lat="44.1125" lon="6.26738">
        <ele>658.9</ele>
      </trkpt>
      <trkpt lat="44.11256" lon="6.26741">
        <ele>659.4</ele>
      </trkpt>
      <trkpt lat="44.11268" lon="6.26729">
        <ele>661.9</ele>
      </trkpt>
      <trkpt lat="44.11182" lon="6.26629">
        <ele>660.7</ele>
      </trkpt>
      <trkpt lat="44.1114" lon="6.26579">
        <ele>658.4</ele>
      </trkpt>
      <trkpt lat="44.11132" lon="6.2657">
        <ele>658.3</ele>
      </trkpt>
      <trkpt lat="44.11033" lon="6.26452">
        <ele>653.9</ele>
      </trkpt>
      <trkpt lat="44.11013" lon="6.26428">
        <ele>653.2</ele>
      </trkpt>
      <trkpt lat="44.1092" lon="6.26319">
        <ele>652.6</ele>
      </trkpt>
      <trkpt lat="44.1089" lon="6.26283">
        <ele>653.7</ele>
      </trkpt>
      <trkpt lat="44.10859" lon="6.26242">
        <ele>653.9</ele>
      </trkpt>
      <trkpt lat="44.10805" lon="6.26163">
        <ele>654.3</ele>
      </trkpt>
      <trkpt lat="44.10782" lon="6.26121">
        <ele>653.2</ele>
      </trkpt>
      <trkpt lat="44.10763" lon="6.26075">
        <ele>652.9</ele>
      </trkpt>
      <trkpt lat="44.10751" lon="6.26026">
        <ele>652.3</ele>
      </trkpt>
      <trkpt lat="44.10746" lon="6.26002">
        <ele>651.4</ele>
      </trkpt>
      <trkpt lat="44.10746" lon="6.25997">
        <ele>651.4</ele>
      </trkpt>
      <trkpt lat="44.10744" lon="6.25985">
        <ele>651</ele>
      </trkpt>
      <trkpt lat="44.10743" lon="6.25973">
        <ele>650.7</ele>
      </trkpt>
      <trkpt lat="44.10741" lon="6.25903">
        <ele>651.4</ele>
      </trkpt>
      <trkpt lat="44.10736" lon="6.25855">
        <ele>649.4</ele>
      </trkpt>
      <trkpt lat="44.10731" lon="6.25832">
        <ele>647.9</ele>
      </trkpt>
      <trkpt lat="44.10724" lon="6.2581">
        <ele>647.1</ele>
      </trkpt>
      <trkpt lat="44.10716" lon="6.25789">
        <ele>646.1</ele>
      </trkpt>
      <trkpt lat="44.10706" lon="6.2577">
        <ele>644.9</ele>
      </trkpt>
      <trkpt lat="44.10696" lon="6.25753">
        <ele>644.1</ele>
      </trkpt>
      <trkpt lat="44.10693" lon="6.25749">
        <ele>643.8</ele>
      </trkpt>
      <trkpt lat="44.10667" lon="6.25717">
        <ele>642.4</ele>
      </trkpt>
      <trkpt lat="44.10637" lon="6.25692">
        <ele>642.4</ele>
      </trkpt>
      <trkpt lat="44.1062" lon="6.25682">
        <ele>643.6</ele>
      </trkpt>
      <trkpt lat="44.10569" lon="6.25659">
        <ele>641.8</ele>
      </trkpt>
      <trkpt lat="44.10553" lon="6.25651">
        <ele>640.9</ele>
      </trkpt>
      <trkpt lat="44.10544" lon="6.25646">
        <ele>640.7</ele>
      </trkpt>
      <trkpt lat="44.10539" lon="6.25644">
        <ele>640.4</ele>
      </trkpt>
      <trkpt lat="44.10537" lon="6.25643">
        <ele>640.4</ele>
      </trkpt>
      <trkpt lat="44.10521" lon="6.25632">
        <ele>640.6</ele>
      </trkpt>
      <trkpt lat="44.10476" lon="6.25591">
        <ele>639.1</ele>
      </trkpt>
      <trkpt lat="44.10459" lon="6.25571">
        <ele>637.8</ele>
      </trkpt>
      <trkpt lat="44.1044" lon="6.25546">
        <ele>636.1</ele>
      </trkpt>
      <trkpt lat="44.10428" lon="6.25528">
        <ele>636.4</ele>
      </trkpt>
      <trkpt lat="44.10408" lon="6.25492">
        <ele>635.8</ele>
      </trkpt>
      <trkpt lat="44.10398" lon="6.2547">
        <ele>634.6</ele>
      </trkpt>
      <trkpt lat="44.10358" lon="6.25372">
        <ele>629.4</ele>
      </trkpt>
      <trkpt lat="44.10347" lon="6.2535">
        <ele>629.4</ele>
      </trkpt>
      <trkpt lat="44.1034" lon="6.2533">
        <ele>629.5</ele>
      </trkpt>
      <trkpt lat="44.10336" lon="6.25314">
        <ele>629.2</ele>
      </trkpt>
      <trkpt lat="44.10336" lon="6.2531">
        <ele>629.2</ele>
      </trkpt>
      <trkpt lat="44.10336" lon="6.25305">
        <ele>629.2</ele>
      </trkpt>
      <trkpt lat="44.10335" lon="6.25301">
        <ele>629.1</ele>
      </trkpt>
      <trkpt lat="44.10333" lon="6.25297">
        <ele>629</ele>
      </trkpt>
      <trkpt lat="44.10328" lon="6.25291">
        <ele>628.9</ele>
      </trkpt>
      <trkpt lat="44.10325" lon="6.2529">
        <ele>628.9</ele>
      </trkpt>
      <trkpt lat="44.10321" lon="6.2529">
        <ele>628.8</ele>
      </trkpt>
      <trkpt lat="44.10317" lon="6.25291">
        <ele>628.7</ele>
      </trkpt>
      <trkpt lat="44.10313" lon="6.25293">
        <ele>628.6</ele>
      </trkpt>
      <trkpt lat="44.10301" lon="6.25294">
        <ele>628.2</ele>
      </trkpt>
      <trkpt lat="44.10287" lon="6.25291">
        <ele>627.5</ele>
      </trkpt>
      <trkpt lat="44.10284" lon="6.25289">
        <ele>627.4</ele>
      </trkpt>
      <trkpt lat="44.1028" lon="6.25287">
        <ele>627.1</ele>
      </trkpt>
      <trkpt lat="44.10264" lon="6.25277">
        <ele>626.5</ele>
      </trkpt>
      <trkpt lat="44.10258" lon="6.25273">
        <ele>626.3</ele>
      </trkpt>
      <trkpt lat="44.1025" lon="6.25266">
        <ele>626</ele>
      </trkpt>
      <trkpt lat="44.10242" lon="6.25259">
        <ele>625.7</ele>
      </trkpt>
      <trkpt lat="44.10229" lon="6.25248">
        <ele>625.2</ele>
      </trkpt>
      <trkpt lat="44.1021" lon="6.25228">
        <ele>624.6</ele>
      </trkpt>
      <trkpt lat="44.10189" lon="6.25201">
        <ele>624</ele>
      </trkpt>
      <trkpt lat="44.10168" lon="6.25171">
        <ele>624</ele>
      </trkpt>
      <trkpt lat="44.10158" lon="6.25155">
        <ele>623.8</ele>
      </trkpt>
      <trkpt lat="44.10126" lon="6.25091">
        <ele>625.2</ele>
      </trkpt>
      <trkpt lat="44.10116" lon="6.25069">
        <ele>625.9</ele>
      </trkpt>
      <trkpt lat="44.10101" lon="6.25043">
        <ele>626.2</ele>
      </trkpt>
      <trkpt lat="44.10078" lon="6.25007">
        <ele>625.6</ele>
      </trkpt>
      <trkpt lat="44.10062" lon="6.24988">
        <ele>624.6</ele>
      </trkpt>
      <trkpt lat="44.1004" lon="6.24961">
        <ele>624.4</ele>
      </trkpt>
      <trkpt lat="44.10018" lon="6.24929">
        <ele>623.7</ele>
      </trkpt>
      <trkpt lat="44.10003" lon="6.24904">
        <ele>623.5</ele>
      </trkpt>
      <trkpt lat="44.10002" lon="6.24921">
        <ele>620.5</ele>
      </trkpt>
      <trkpt lat="44.10008" lon="6.24963">
        <ele>621.3</ele>
      </trkpt>
      <trkpt lat="44.10001" lon="6.24978">
        <ele>620.9</ele>
      </trkpt>
      <trkpt lat="44.09977" lon="6.24988">
        <ele>619.2</ele>
      </trkpt>
      <trkpt lat="44.09984" lon="6.25011">
        <ele>619.5</ele>
      </trkpt>
      <trkpt lat="44.09984" lon="6.25018">
        <ele>619.5</ele>
      </trkpt>
      <trkpt lat="44.09982" lon="6.25029">
        <ele>619.8</ele>
      </trkpt>
      <trkpt lat="44.09981" lon="6.25041">
        <ele>621</ele>
      </trkpt>
      <trkpt lat="44.09985" lon="6.25056">
        <ele>621.7</ele>
      </trkpt>
      <trkpt lat="44.09999" lon="6.25058">
        <ele>619.3</ele>
      </trkpt>
      <trkpt lat="44.10001" lon="6.25059">
        <ele>619.2</ele>
      </trkpt>
      <trkpt lat="44.10007" lon="6.25045">
        <ele>619.3</ele>
      </trkpt>
      <trkpt lat="44.10035" lon="6.25011">
        <ele>621.1</ele>
      </trkpt>
      <trkpt lat="44.10043" lon="6.25006">
        <ele>621.9</ele>
      </trkpt>
      <trkpt lat="44.10054" lon="6.25016">
        <ele>622.3</ele>
        <extensions>
          <visugpx:TrkExtension xmlns:visugpx="https://www.visugpx.com/editgpx/">
            <visugpx:node>18</visugpx:node>
            </visugpx:TrkExtension>
        </extensions>
      </trkpt>
    </trkseg>
  </trk>
</gpx>